UAE42X OMDB-LKPR
Flight info
| Callsign | UAE42X |
|---|---|
| Flight time | 7h 49m |
| Altitude | 33000 |
| Route | ANVIX7F ANVIX L223 TARDI N629 BOTAM Y855 LAKLU/N0496F340 Q204 NALKI G652 TOKRA DCT ALROK DCT BOSOB DCT ITRUX Y511 PMA Z712 WEJ L604 IVOTI T55 NABED/N0486F360 T55 KUNKI P751 MMA M855 RASNO DCT DEMAG DCT TUMBO DCT RETRA DCT TIVNU DCT ZAG DCT PETOV DCT GOLVA DCT EPOLA DCT LNZ DCT PINQI/N0480F370 DCT APRAQ APRAQ2R |
| Aircraft | B77W/H-SDE1E2E3FGHIJ2J3J4J5M1RWXY/LB1D1 |
Departure
| Time | 2026-04-23 13:45 |
|---|---|
| Airport | Dubai International Airport (OMDB) |
Arrival
| Time | 2026-04-23 21:34 |
|---|---|
| Airport | Václav Havel Airport Prague (LKPR) |
| Time | Latitude | Longitude | Altitude | Speed | Heading |
|---|---|---|---|---|---|
| 2026-04-23 12:49 | 25.24803 | 55.36439 | 28 ft | 0 kts | 211° |
| 2026-04-23 13:28 | 25.24810 | 55.36443 | 30 ft | 4 kts | 211° |
| 2026-04-23 13:29 | 25.24833 | 55.36459 | 30 ft | 4 kts | 211° |
| 2026-04-23 13:29 | 25.24852 | 55.36472 | 32 ft | 4 kts | 213° |
| 2026-04-23 13:29 | 25.24870 | 55.36490 | 32 ft | 4 kts | 251° |
| 2026-04-23 13:29 | 25.24870 | 55.36518 | 32 ft | 4 kts | 294° |
| 2026-04-23 13:30 | 25.24858 | 55.36542 | 32 ft | 4 kts | 302° |
| 2026-04-23 13:30 | 25.24846 | 55.36563 | 32 ft | 1 kts | 302° |
| 2026-04-23 13:33 | 25.24849 | 55.36558 | 32 ft | 3 kts | 302° |
| 2026-04-23 13:33 | 25.24875 | 55.36511 | 30 ft | 12 kts | 301° |
| 2026-04-23 13:33 | 25.24934 | 55.36404 | 28 ft | 20 kts | 301° |
| 2026-04-23 13:34 | 25.25017 | 55.36258 | 29 ft | 25 kts | 302° |
| 2026-04-23 13:34 | 25.25111 | 55.36094 | 31 ft | 25 kts | 302° |
| 2026-04-23 13:34 | 25.25196 | 55.35941 | 30 ft | 22 kts | 302° |
| 2026-04-23 13:34 | 25.25275 | 55.35802 | 29 ft | 22 kts | 302° |
| 2026-04-23 13:35 | 25.25359 | 55.35658 | 30 ft | 22 kts | 302° |
| 2026-04-23 13:35 | 25.25445 | 55.35535 | 29 ft | 20 kts | 320° |
| 2026-04-23 13:35 | 25.25547 | 55.35464 | 30 ft | 17 kts | 327° |
| 2026-04-23 13:35 | 25.25625 | 55.35367 | 30 ft | 17 kts | 300° |
| 2026-04-23 13:36 | 25.25685 | 55.35254 | 28 ft | 17 kts | 302° |
| 2026-04-23 13:36 | 25.25733 | 55.35202 | 31 ft | 8 kts | 351° |
| 2026-04-23 13:36 | 25.25785 | 55.35227 | 32 ft | 10 kts | 28° |
| 2026-04-23 13:36 | 25.25867 | 55.35278 | 30 ft | 17 kts | 30° |
| 2026-04-23 13:37 | 25.25962 | 55.35352 | 31 ft | 14 kts | 45° |
| 2026-04-23 13:37 | 25.25975 | 55.35368 | 29 ft | 0 kts | 50° |
| 2026-04-23 13:37 | 25.25984 | 55.35382 | 15 ft | 3 kts | 57° |
| 2026-04-23 13:38 | 25.25989 | 55.35391 | 13 ft | 0 kts | 59° |
| 2026-04-23 13:38 | 25.25996 | 55.35409 | 4 ft | 7 kts | 67° |
| 2026-04-23 13:38 | 25.26007 | 55.35511 | 26 ft | 20 kts | 102° |
| 2026-04-23 13:38 | 25.25929 | 55.35673 | 26 ft | 27 kts | 122° |
| 2026-04-23 13:39 | 25.25825 | 55.35846 | 27 ft | 27 kts | 122° |
| 2026-04-23 13:39 | 25.25726 | 55.36022 | 27 ft | 27 kts | 123° |
| 2026-04-23 13:39 | 25.25628 | 55.36198 | 27 ft | 27 kts | 121° |
| 2026-04-23 13:39 | 25.25531 | 55.36369 | 27 ft | 26 kts | 122° |
| 2026-04-23 13:40 | 25.25435 | 55.36537 | 27 ft | 26 kts | 122° |
| 2026-04-23 13:40 | 25.25340 | 55.36708 | 26 ft | 26 kts | 121° |
| 2026-04-23 13:40 | 25.25245 | 55.36880 | 27 ft | 26 kts | 122° |
| 2026-04-23 13:40 | 25.25150 | 55.37051 | 27 ft | 26 kts | 122° |
| 2026-04-23 13:41 | 25.25053 | 55.37220 | 28 ft | 26 kts | 121° |
| 2026-04-23 13:41 | 25.24958 | 55.37385 | 28 ft | 26 kts | 121° |
| 2026-04-23 13:41 | 25.24864 | 55.37557 | 28 ft | 26 kts | 122° |
| 2026-04-23 13:41 | 25.24768 | 55.37726 | 28 ft | 26 kts | 122° |
| 2026-04-23 13:42 | 25.24700 | 55.37845 | 27 ft | 10 kts | 122° |
| 2026-04-23 13:42 | 25.24664 | 55.37908 | 27 ft | 10 kts | 122° |
| 2026-04-23 13:42 | 25.24672 | 55.37952 | 27 ft | 6 kts | 50° |
| 2026-04-23 13:42 | 25.24679 | 55.37959 | 27 ft | 0 kts | 38° |
| 2026-04-23 13:43 | 25.24688 | 55.37966 | 28 ft | 5 kts | 35° |
| 2026-04-23 13:44 | 25.24746 | 55.38007 | 29 ft | 13 kts | 28° |
| 2026-04-23 13:44 | 25.24828 | 55.37988 | 30 ft | 16 kts | 299° |
| 2026-04-23 13:44 | 25.24928 | 55.37803 | 30 ft | 56 kts | 301° |
| 2026-04-23 13:44 | 25.25258 | 55.37212 | 32 ft | 126 kts | 301° |
| 2026-04-23 13:45 | 25.25611 | 55.36580 | 31 ft | 166 kts | 301° |
| 2026-04-23 13:45 | 25.26458 | 55.35019 | 622 ft | 178 kts | 304° |
| 2026-04-23 13:45 | 25.27087 | 55.33821 | 1118 ft | 185 kts | 304° |
| 2026-04-23 13:45 | 25.27715 | 55.32556 | 1712 ft | 188 kts | 301° |
| 2026-04-23 13:46 | 25.28368 | 55.31292 | 2364 ft | 190 kts | 303° |
| 2026-04-23 13:46 | 25.29061 | 55.30018 | 2887 ft | 196 kts | 302° |
| 2026-04-23 13:46 | 25.29772 | 55.28715 | 3391 ft | 203 kts | 300° |
| 2026-04-23 13:46 | 25.30522 | 55.27338 | 3749 ft | 219 kts | 300° |
| 2026-04-23 13:47 | 25.31311 | 55.25887 | 4363 ft | 223 kts | 300° |
| 2026-04-23 13:47 | 25.31920 | 55.24268 | 4621 ft | 237 kts | 271° |
| 2026-04-23 13:47 | 25.31590 | 55.22482 | 5079 ft | 242 kts | 243° |
| 2026-04-23 13:47 | 25.30645 | 55.20943 | 5734 ft | 244 kts | 222° |
| 2026-04-23 13:48 | 25.29225 | 55.19939 | 6353 ft | 244 kts | 210° |
| 2026-04-23 13:48 | 25.27760 | 55.19021 | 6924 ft | 245 kts | 212° |
| 2026-04-23 13:48 | 25.26320 | 55.18067 | 7597 ft | 246 kts | 212° |
| 2026-04-23 13:48 | 25.24847 | 55.17093 | 8269 ft | 246 kts | 208° |
| 2026-04-23 13:49 | 25.23179 | 55.16648 | 8758 ft | 255 kts | 179° |
| 2026-04-23 13:49 | 25.21387 | 55.16812 | 9265 ft | 261 kts | 179° |
| 2026-04-23 13:49 | 25.19582 | 55.17055 | 9855 ft | 264 kts | 164° |
| 2026-04-23 13:49 | 25.18081 | 55.18109 | 10260 ft | 282 kts | 134° |
| 2026-04-23 13:50 | 25.17138 | 55.20116 | 10606 ft | 302 kts | 106° |
| 2026-04-23 13:50 | 25.16744 | 55.22417 | 11206 ft | 307 kts | 104° |
| 2026-04-23 13:50 | 25.16305 | 55.24722 | 11927 ft | 307 kts | 104° |
| 2026-04-23 13:50 | 25.16001 | 55.27046 | 12612 ft | 304 kts | 104° |
| 2026-04-23 13:51 | 25.15222 | 55.29134 | 13045 ft | 298 kts | 133° |
| 2026-04-23 13:51 | 25.13764 | 55.30749 | 13691 ft | 290 kts | 146° |
| 2026-04-23 13:51 | 25.12190 | 55.32151 | 14161 ft | 298 kts | 141° |
| 2026-04-23 13:51 | 25.10659 | 55.33782 | 14382 ft | 310 kts | 143° |
| 2026-04-23 13:52 | 25.09206 | 55.35444 | 14639 ft | 325 kts | 124° |
| 2026-04-23 13:52 | 25.08442 | 55.37827 | 14757 ft | 338 kts | 96° |
| 2026-04-23 13:52 | 25.08522 | 55.40407 | 14860 ft | 333 kts | 98° |
| 2026-04-23 13:52 | 25.07960 | 55.42869 | 14853 ft | 337 kts | 120° |
| 2026-04-23 13:53 | 25.06579 | 55.44988 | 15029 ft | 348 kts | 140° |
| 2026-04-23 13:53 | 25.04667 | 55.46696 | 15158 ft | 361 kts | 142° |
| 2026-04-23 13:53 | 25.03037 | 55.48911 | 15274 ft | 388 kts | 118° |
| 2026-04-23 13:53 | 25.02326 | 55.51852 | 15500 ft | 410 kts | 92° |
| 2026-04-23 13:54 | 25.02726 | 55.54981 | 15931 ft | 418 kts | 75° |
| 2026-04-23 13:54 | 25.03254 | 55.58161 | 15996 ft | 428 kts | 92° |
| 2026-04-23 13:54 | 25.02779 | 55.61418 | 16440 ft | 433 kts | 109° |
| 2026-04-23 13:54 | 25.01716 | 55.64537 | 17095 ft | 435 kts | 115° |
| 2026-04-23 13:55 | 25.00318 | 55.67500 | 17701 ft | 437 kts | 126° |
| 2026-04-23 13:55 | 24.98386 | 55.70096 | 18258 ft | 440 kts | 135° |
| 2026-04-23 13:55 | 24.96263 | 55.72534 | 18788 ft | 443 kts | 137° |
| 2026-04-23 13:55 | 24.94100 | 55.74977 | 19340 ft | 447 kts | 137° |
| 2026-04-23 13:56 | 24.91934 | 55.77461 | 19923 ft | 450 kts | 136° |
| 2026-04-23 13:56 | 24.89773 | 55.79987 | 20444 ft | 456 kts | 136° |
| 2026-04-23 13:56 | 24.87601 | 55.82564 | 20902 ft | 462 kts | 136° |
| 2026-04-23 13:56 | 24.85420 | 55.85171 | 21469 ft | 464 kts | 136° |
| 2026-04-23 13:57 | 24.83234 | 55.87790 | 22104 ft | 465 kts | 136° |
| 2026-04-23 13:57 | 24.81779 | 55.89530 | 22457 ft | 467 kts | 136° |
| 2026-04-23 13:57 | 24.79563 | 55.92172 | 22897 ft | 472 kts | 136° |
| 2026-04-23 13:57 | 24.77291 | 55.94794 | 23335 ft | 475 kts | 139° |
| 2026-04-23 13:58 | 24.74873 | 55.97293 | 23717 ft | 478 kts | 141° |
| 2026-04-23 13:58 | 24.72420 | 55.99782 | 24100 ft | 482 kts | 141° |
| 2026-04-23 13:58 | 24.69954 | 56.02302 | 24490 ft | 486 kts | 140° |
| 2026-04-23 13:58 | 24.67479 | 56.04848 | 24879 ft | 489 kts | 140° |
| 2026-04-23 13:59 | 24.64978 | 56.07412 | 25248 ft | 493 kts | 140° |
| 2026-04-23 13:59 | 24.62456 | 56.09993 | 25590 ft | 498 kts | 140° |
| 2026-04-23 13:59 | 24.59909 | 56.12596 | 25941 ft | 502 kts | 140° |
| 2026-04-23 13:59 | 24.57364 | 56.15235 | 26298 ft | 506 kts | 138° |
| 2026-04-23 14:00 | 24.54991 | 56.18057 | 26637 ft | 512 kts | 133° |
| 2026-04-23 14:00 | 24.52669 | 56.21110 | 26952 ft | 516 kts | 133° |
| 2026-04-23 14:00 | 24.50379 | 56.24085 | 27287 ft | 519 kts | 133° |
| 2026-04-23 14:00 | 24.48021 | 56.27104 | 27604 ft | 522 kts | 133° |
| 2026-04-23 14:01 | 24.45632 | 56.30140 | 27875 ft | 528 kts | 134° |
| 2026-04-23 14:01 | 24.43324 | 56.33063 | 28275 ft | 527 kts | 133° |
| 2026-04-23 14:01 | 24.40929 | 56.36104 | 28827 ft | 525 kts | 133° |
| 2026-04-23 14:01 | 24.38547 | 56.39137 | 29358 ft | 524 kts | 133° |
| 2026-04-23 14:02 | 24.36169 | 56.42162 | 29781 ft | 524 kts | 133° |
| 2026-04-23 14:02 | 24.33781 | 56.45187 | 30139 ft | 525 kts | 133° |
| 2026-04-23 14:02 | 24.31388 | 56.48214 | 30492 ft | 525 kts | 133° |
| 2026-04-23 14:02 | 24.29035 | 56.51279 | 30910 ft | 524 kts | 129° |
| 2026-04-23 14:03 | 24.26912 | 56.54519 | 31346 ft | 523 kts | 124° |
| 2026-04-23 14:03 | 24.24990 | 56.57899 | 31767 ft | 522 kts | 122° |
| 2026-04-23 14:03 | 24.23123 | 56.61306 | 32188 ft | 520 kts | 123° |
| 2026-04-23 14:03 | 24.21144 | 56.64607 | 32563 ft | 518 kts | 127° |
| 2026-04-23 14:04 | 24.18967 | 56.67740 | 32919 ft | 516 kts | 131° |
| 2026-04-23 14:04 | 24.16652 | 56.70742 | 33265 ft | 515 kts | 132° |
| 2026-04-23 14:04 | 24.14344 | 56.73744 | 33606 ft | 515 kts | 130° |
| 2026-04-23 14:04 | 24.12164 | 56.76864 | 33777 ft | 518 kts | 127° |
| 2026-04-23 14:05 | 24.10103 | 56.80130 | 33824 ft | 523 kts | 125° |
| 2026-04-23 14:05 | 24.05769 | 56.86546 | 33807 ft | 525 kts | 142° |
| 2026-04-23 14:05 | 24.02763 | 56.88764 | 33867 ft | 521 kts | 157° |
| 2026-04-23 14:06 | 23.99401 | 56.90243 | 33828 ft | 521 kts | 167° |
| 2026-04-23 14:06 | 23.92401 | 56.92087 | 33839 ft | 519 kts | 171° |
| 2026-04-23 14:07 | 23.85438 | 56.93902 | 33836 ft | 511 kts | 170° |
| 2026-04-23 14:07 | 23.75071 | 56.96683 | 33848 ft | 512 kts | 170° |
| 2026-04-23 14:08 | 23.68142 | 56.98542 | 33857 ft | 514 kts | 170° |
| 2026-04-23 14:08 | 23.61172 | 57.00407 | 33871 ft | 516 kts | 170° |
| 2026-04-23 14:09 | 23.54185 | 57.02274 | 33861 ft | 518 kts | 169° |
| 2026-04-23 14:09 | 23.47178 | 57.04147 | 33878 ft | 519 kts | 169° |
| 2026-04-23 14:10 | 23.40113 | 57.05763 | 33887 ft | 516 kts | 179° |
| 2026-04-23 14:10 | 23.32995 | 57.05658 | 33891 ft | 508 kts | 192° |
| 2026-04-23 14:11 | 23.26119 | 57.04097 | 33893 ft | 503 kts | 198° |
| 2026-04-23 14:11 | 23.19299 | 57.02414 | 33894 ft | 502 kts | 197° |
| 2026-04-23 14:12 | 23.12474 | 57.00801 | 33872 ft | 501 kts | 197° |
| 2026-04-23 14:12 | 23.05725 | 56.99229 | 33889 ft | 499 kts | 197° |
| 2026-04-23 14:13 | 22.98933 | 56.97639 | 33876 ft | 498 kts | 198° |
| 2026-04-23 14:13 | 22.92169 | 56.96024 | 33878 ft | 497 kts | 198° |
| 2026-04-23 14:14 | 22.85514 | 56.94188 | 33841 ft | 484 kts | 211° |
| 2026-04-23 14:14 | 22.82710 | 56.92276 | 33865 ft | 471 kts | 226° |
| 2026-04-23 14:14 | 22.80500 | 56.89729 | 33861 ft | 462 kts | 239° |
| 2026-04-23 14:15 | 22.77472 | 56.83677 | 33850 ft | 457 kts | 248° |
| 2026-04-23 14:15 | 22.74609 | 56.77495 | 33846 ft | 461 kts | 247° |
| 2026-04-23 14:16 | 22.71672 | 56.71297 | 33829 ft | 464 kts | 246° |
| 2026-04-23 14:16 | 22.68712 | 56.65139 | 33834 ft | 465 kts | 246° |
| 2026-04-23 14:17 | 22.65854 | 56.59205 | 33808 ft | 464 kts | 246° |
| 2026-04-23 14:17 | 22.62900 | 56.53066 | 33815 ft | 460 kts | 246° |
| 2026-04-23 14:18 | 22.59956 | 56.46954 | 33804 ft | 457 kts | 246° |
| 2026-04-23 14:18 | 22.57018 | 56.40861 | 33799 ft | 455 kts | 246° |
| 2026-04-23 14:19 | 22.54089 | 56.34802 | 33801 ft | 454 kts | 246° |
| 2026-04-23 14:19 | 22.51155 | 56.28753 | 33794 ft | 454 kts | 246° |
| 2026-04-23 14:20 | 22.48213 | 56.22696 | 33794 ft | 455 kts | 246° |
| 2026-04-23 14:20 | 22.45264 | 56.16626 | 33798 ft | 456 kts | 246° |
| 2026-04-23 14:21 | 22.42306 | 56.10546 | 33796 ft | 458 kts | 246° |
| 2026-04-23 14:21 | 22.39338 | 56.04451 | 33791 ft | 459 kts | 246° |
| 2026-04-23 14:22 | 22.36357 | 55.98350 | 33781 ft | 459 kts | 246° |
| 2026-04-23 14:22 | 22.33378 | 55.92294 | 33784 ft | 459 kts | 246° |
| 2026-04-23 14:23 | 22.30381 | 55.86204 | 33771 ft | 459 kts | 246° |
| 2026-04-23 14:23 | 22.27386 | 55.80119 | 33779 ft | 459 kts | 246° |
| 2026-04-23 14:24 | 22.24390 | 55.74037 | 33774 ft | 458 kts | 246° |
| 2026-04-23 14:24 | 22.21397 | 55.67956 | 33771 ft | 458 kts | 246° |
| 2026-04-23 14:25 | 22.18411 | 55.61895 | 33771 ft | 457 kts | 246° |
| 2026-04-23 14:25 | 22.16161 | 55.55612 | 33767 ft | 450 kts | 258° |
| 2026-04-23 14:26 | 22.15015 | 55.49021 | 33774 ft | 446 kts | 267° |
| 2026-04-23 14:26 | 22.14495 | 55.42363 | 33763 ft | 446 kts | 268° |
| 2026-04-23 14:27 | 22.13985 | 55.35697 | 33762 ft | 446 kts | 267° |
| 2026-04-23 14:27 | 22.13452 | 55.29035 | 33761 ft | 446 kts | 267° |
| 2026-04-23 14:28 | 22.12904 | 55.22368 | 33763 ft | 446 kts | 267° |
| 2026-04-23 14:28 | 22.12347 | 55.15707 | 33755 ft | 446 kts | 267° |
| 2026-04-23 14:29 | 22.11788 | 55.09048 | 33759 ft | 446 kts | 267° |
| 2026-04-23 14:29 | 22.11226 | 55.02392 | 33757 ft | 445 kts | 267° |
| 2026-04-23 14:30 | 22.10664 | 54.95741 | 33761 ft | 445 kts | 267° |
| 2026-04-23 14:30 | 22.10100 | 54.89091 | 33755 ft | 445 kts | 267° |
| 2026-04-23 14:31 | 22.09532 | 54.82439 | 33753 ft | 445 kts | 266° |
| 2026-04-23 14:31 | 22.08961 | 54.75789 | 33760 ft | 445 kts | 266° |
| 2026-04-23 14:32 | 22.08388 | 54.69145 | 33756 ft | 445 kts | 266° |
| 2026-04-23 14:32 | 22.07815 | 54.62534 | 33752 ft | 446 kts | 266° |
| 2026-04-23 14:33 | 22.07235 | 54.55873 | 33750 ft | 446 kts | 266° |
| 2026-04-23 14:33 | 22.06653 | 54.49211 | 33755 ft | 446 kts | 266° |
| 2026-04-23 14:34 | 22.06068 | 54.42547 | 33756 ft | 447 kts | 266° |
| 2026-04-23 14:34 | 22.05478 | 54.35879 | 33752 ft | 447 kts | 266° |
| 2026-04-23 14:35 | 22.04886 | 54.29214 | 33753 ft | 447 kts | 266° |
| 2026-04-23 14:35 | 22.04292 | 54.22542 | 33754 ft | 447 kts | 266° |
| 2026-04-23 14:36 | 22.03696 | 54.15879 | 33751 ft | 447 kts | 266° |
| 2026-04-23 14:36 | 22.03096 | 54.09206 | 33751 ft | 447 kts | 266° |
| 2026-04-23 14:37 | 22.02495 | 54.02545 | 33751 ft | 447 kts | 266° |
| 2026-04-23 14:37 | 22.01889 | 53.95874 | 33753 ft | 447 kts | 266° |
| 2026-04-23 14:38 | 22.01281 | 53.89212 | 33753 ft | 446 kts | 266° |
| 2026-04-23 14:38 | 22.00671 | 53.82555 | 33750 ft | 446 kts | 266° |
| 2026-04-23 14:39 | 22.00064 | 53.75950 | 33748 ft | 446 kts | 266° |
| 2026-04-23 14:39 | 21.99449 | 53.69300 | 33750 ft | 446 kts | 266° |
| 2026-04-23 14:40 | 21.98832 | 53.62645 | 33754 ft | 446 kts | 266° |
| 2026-04-23 14:40 | 21.98211 | 53.55990 | 33749 ft | 446 kts | 266° |
| 2026-04-23 14:41 | 21.97589 | 53.49342 | 33749 ft | 446 kts | 266° |
| 2026-04-23 14:41 | 21.96963 | 53.42683 | 33750 ft | 446 kts | 266° |
| 2026-04-23 14:42 | 21.96334 | 53.36025 | 33751 ft | 446 kts | 266° |
| 2026-04-23 14:42 | 21.95703 | 53.29370 | 33749 ft | 446 kts | 266° |
| 2026-04-23 14:43 | 21.95069 | 53.22717 | 33747 ft | 447 kts | 266° |
| 2026-04-23 14:43 | 21.94431 | 53.16056 | 33747 ft | 447 kts | 266° |
| 2026-04-23 14:44 | 21.93791 | 53.09396 | 33746 ft | 447 kts | 266° |
| 2026-04-23 14:44 | 21.93149 | 53.02742 | 33743 ft | 447 kts | 266° |
| 2026-04-23 14:45 | 21.92612 | 52.97196 | 33744 ft | 447 kts | 266° |
| 2026-04-23 14:45 | 21.91859 | 52.89452 | 33744 ft | 448 kts | 266° |
| 2026-04-23 14:46 | 21.91208 | 52.82787 | 33743 ft | 448 kts | 266° |
| 2026-04-23 14:46 | 21.90553 | 52.76114 | 33744 ft | 448 kts | 266° |
| 2026-04-23 14:47 | 21.90423 | 52.70516 | 33744 ft | 446 kts | 274° |
| 2026-04-23 14:47 | 21.91146 | 52.63946 | 33748 ft | 445 kts | 282° |
| 2026-04-23 14:48 | 21.92373 | 52.57408 | 33760 ft | 445 kts | 282° |
| 2026-04-23 14:48 | 21.93602 | 52.50872 | 33737 ft | 445 kts | 282° |
| 2026-04-23 14:49 | 21.94813 | 52.44335 | 33747 ft | 445 kts | 282° |
| 2026-04-23 14:49 | 21.96012 | 52.37801 | 33749 ft | 445 kts | 282° |
| 2026-04-23 14:50 | 21.97205 | 52.31268 | 33753 ft | 445 kts | 282° |
| 2026-04-23 14:50 | 21.98396 | 52.24725 | 33752 ft | 445 kts | 282° |
| 2026-04-23 14:51 | 21.99584 | 52.18186 | 33750 ft | 445 kts | 282° |
| 2026-04-23 14:51 | 22.00771 | 52.11639 | 33756 ft | 445 kts | 282° |
| 2026-04-23 14:52 | 22.01948 | 52.05133 | 33756 ft | 445 kts | 282° |
| 2026-04-23 14:52 | 22.03137 | 51.98544 | 33765 ft | 445 kts | 281° |
| 2026-04-23 14:53 | 22.04307 | 51.92047 | 33759 ft | 445 kts | 281° |
| 2026-04-23 14:53 | 22.05483 | 51.85503 | 33765 ft | 444 kts | 281° |
| 2026-04-23 14:54 | 22.06655 | 51.78963 | 33764 ft | 444 kts | 281° |
| 2026-04-23 14:54 | 22.07822 | 51.72434 | 33768 ft | 443 kts | 281° |
| 2026-04-23 14:55 | 22.08987 | 51.65905 | 33773 ft | 443 kts | 281° |
| 2026-04-23 14:55 | 22.10149 | 51.59373 | 33772 ft | 443 kts | 281° |
| 2026-04-23 14:56 | 22.11308 | 51.52844 | 33771 ft | 443 kts | 281° |
| 2026-04-23 14:56 | 22.12463 | 51.46318 | 33771 ft | 443 kts | 281° |
| 2026-04-23 14:57 | 22.13618 | 51.39774 | 33787 ft | 444 kts | 281° |
| 2026-04-23 14:57 | 22.14764 | 51.33241 | 33777 ft | 444 kts | 281° |
| 2026-04-23 14:58 | 22.15909 | 51.26697 | 33776 ft | 444 kts | 281° |
| 2026-04-23 14:58 | 22.17051 | 51.20165 | 33787 ft | 444 kts | 281° |
| 2026-04-23 14:59 | 22.18195 | 51.13626 | 33786 ft | 444 kts | 281° |
| 2026-04-23 14:59 | 22.19338 | 51.07079 | 33786 ft | 444 kts | 281° |
| 2026-04-23 15:00 | 22.20486 | 51.00535 | 33789 ft | 444 kts | 281° |
| 2026-04-23 15:00 | 22.21620 | 50.94031 | 33793 ft | 444 kts | 281° |
| 2026-04-23 15:01 | 22.22756 | 50.87483 | 33803 ft | 444 kts | 280° |
| 2026-04-23 15:01 | 22.23889 | 50.80924 | 33793 ft | 445 kts | 281° |
| 2026-04-23 15:02 | 22.25021 | 50.74353 | 33790 ft | 445 kts | 280° |
| 2026-04-23 15:02 | 22.26152 | 50.67779 | 33793 ft | 446 kts | 280° |
| 2026-04-23 15:03 | 22.27280 | 50.61197 | 33785 ft | 446 kts | 280° |
| 2026-04-23 15:03 | 22.28407 | 50.54613 | 33805 ft | 446 kts | 280° |
| 2026-04-23 15:04 | 22.29532 | 50.48017 | 33799 ft | 447 kts | 280° |
| 2026-04-23 15:04 | 22.30656 | 50.41414 | 33793 ft | 447 kts | 280° |
| 2026-04-23 15:05 | 22.31778 | 50.34805 | 33796 ft | 447 kts | 280° |
| 2026-04-23 15:05 | 22.32899 | 50.28188 | 33806 ft | 448 kts | 280° |
| 2026-04-23 15:06 | 22.34011 | 50.21603 | 33801 ft | 449 kts | 280° |
| 2026-04-23 15:06 | 22.35130 | 50.14963 | 33797 ft | 450 kts | 280° |
| 2026-04-23 15:07 | 22.36250 | 50.08298 | 33795 ft | 450 kts | 280° |
| 2026-04-23 15:07 | 22.37365 | 50.01644 | 33788 ft | 451 kts | 280° |
| 2026-04-23 15:08 | 22.38479 | 49.94983 | 33783 ft | 451 kts | 280° |
| 2026-04-23 15:09 | 22.40144 | 49.84990 | 33796 ft | 450 kts | 280° |
| 2026-04-23 15:09 | 22.41252 | 49.78321 | 33790 ft | 450 kts | 280° |
| 2026-04-23 15:10 | 22.42167 | 49.72794 | 33787 ft | 450 kts | 281° |
| 2026-04-23 15:10 | 22.43453 | 49.65014 | 33797 ft | 449 kts | 281° |
| 2026-04-23 15:11 | 22.44540 | 49.58415 | 33794 ft | 448 kts | 281° |
| 2026-04-23 15:11 | 22.45630 | 49.51783 | 33796 ft | 448 kts | 280° |
| 2026-04-23 15:12 | 22.46717 | 49.45154 | 33792 ft | 447 kts | 280° |
| 2026-04-23 15:12 | 22.47798 | 49.38540 | 33791 ft | 447 kts | 280° |
| 2026-04-23 15:13 | 22.48876 | 49.31931 | 33794 ft | 446 kts | 280° |
| 2026-04-23 15:13 | 22.49950 | 49.25328 | 33808 ft | 445 kts | 280° |
| 2026-04-23 15:14 | 22.51020 | 49.18730 | 33794 ft | 445 kts | 280° |
| 2026-04-23 15:14 | 22.52085 | 49.12140 | 33792 ft | 445 kts | 280° |
| 2026-04-23 15:15 | 22.53149 | 49.05548 | 33790 ft | 445 kts | 280° |
| 2026-04-23 15:15 | 22.54209 | 48.98959 | 33804 ft | 444 kts | 280° |
| 2026-04-23 15:16 | 22.55265 | 48.92377 | 33799 ft | 444 kts | 279° |
| 2026-04-23 15:16 | 22.56318 | 48.85795 | 33800 ft | 444 kts | 279° |
| 2026-04-23 15:17 | 22.57369 | 48.79211 | 33808 ft | 444 kts | 279° |
| 2026-04-23 15:17 | 22.58419 | 48.72614 | 33811 ft | 445 kts | 279° |
| 2026-04-23 15:18 | 22.59466 | 48.66014 | 33803 ft | 445 kts | 279° |
| 2026-04-23 15:18 | 22.60511 | 48.59413 | 33809 ft | 445 kts | 279° |
| 2026-04-23 15:19 | 22.61552 | 48.52818 | 33805 ft | 445 kts | 279° |
| 2026-04-23 15:19 | 22.62591 | 48.46218 | 33804 ft | 445 kts | 279° |
| 2026-04-23 15:20 | 22.63452 | 48.40738 | 33811 ft | 444 kts | 279° |
| 2026-04-23 15:20 | 22.64659 | 48.33029 | 33803 ft | 444 kts | 279° |
| 2026-04-23 15:21 | 22.65689 | 48.26433 | 33803 ft | 444 kts | 279° |
| 2026-04-23 15:21 | 22.66708 | 48.19886 | 33818 ft | 444 kts | 279° |
| 2026-04-23 15:22 | 22.67734 | 48.13281 | 33797 ft | 444 kts | 279° |
| 2026-04-23 15:22 | 22.68756 | 48.06678 | 33797 ft | 444 kts | 279° |
| 2026-04-23 15:23 | 22.69554 | 48.00053 | 33803 ft | 444 kts | 275° |
| 2026-04-23 15:23 | 22.70093 | 47.93396 | 33804 ft | 444 kts | 275° |
| 2026-04-23 15:24 | 22.70630 | 47.86732 | 33803 ft | 444 kts | 275° |
| 2026-04-23 15:24 | 22.71175 | 47.80068 | 33811 ft | 444 kts | 274° |
| 2026-04-23 15:25 | 22.71724 | 47.73398 | 33817 ft | 445 kts | 274° |
| 2026-04-23 15:25 | 22.72179 | 47.67850 | 33810 ft | 445 kts | 274° |
| 2026-04-23 15:26 | 22.72816 | 47.60046 | 33812 ft | 446 kts | 275° |
| 2026-04-23 15:26 | 22.73358 | 47.53352 | 33825 ft | 447 kts | 274° |
| 2026-04-23 15:27 | 22.73896 | 47.46688 | 33816 ft | 447 kts | 274° |
| 2026-04-23 15:27 | 22.74435 | 47.39967 | 33825 ft | 448 kts | 274° |
| 2026-04-23 15:28 | 22.74970 | 47.33254 | 33832 ft | 447 kts | 274° |
| 2026-04-23 15:28 | 22.75504 | 47.26532 | 33841 ft | 446 kts | 274° |
| 2026-04-23 15:29 | 22.76032 | 47.19841 | 33825 ft | 445 kts | 274° |
| 2026-04-23 15:29 | 22.76562 | 47.13157 | 33829 ft | 445 kts | 274° |
| 2026-04-23 15:30 | 22.77097 | 47.06480 | 33860 ft | 445 kts | 274° |
| 2026-04-23 15:30 | 22.77631 | 46.99792 | 33839 ft | 446 kts | 274° |
| 2026-04-23 15:31 | 22.78163 | 46.93078 | 33842 ft | 448 kts | 274° |
| 2026-04-23 15:31 | 22.78693 | 46.86340 | 33843 ft | 449 kts | 274° |
| 2026-04-23 15:32 | 22.79221 | 46.79588 | 33841 ft | 450 kts | 274° |
| 2026-04-23 15:32 | 22.79747 | 46.72834 | 33844 ft | 450 kts | 274° |
| 2026-04-23 15:33 | 22.80182 | 46.67219 | 33846 ft | 450 kts | 274° |
| 2026-04-23 15:33 | 22.80703 | 46.60459 | 33851 ft | 450 kts | 274° |
| 2026-04-23 15:34 | 22.81304 | 46.52610 | 33840 ft | 449 kts | 274° |
| 2026-04-23 15:34 | 22.81818 | 46.45862 | 33850 ft | 449 kts | 273° |
| 2026-04-23 15:35 | 22.82247 | 46.40215 | 33841 ft | 448 kts | 273° |
| 2026-04-23 15:35 | 22.82749 | 46.33496 | 33834 ft | 447 kts | 273° |
| 2026-04-23 15:36 | 22.83239 | 46.26829 | 33830 ft | 446 kts | 273° |
| 2026-04-23 15:36 | 22.83730 | 46.20132 | 33831 ft | 446 kts | 273° |
| 2026-04-23 15:37 | 22.84221 | 46.13388 | 33814 ft | 446 kts | 273° |
| 2026-04-23 15:37 | 22.84709 | 46.06664 | 33819 ft | 449 kts | 273° |
| 2026-04-23 15:38 | 22.85194 | 45.99944 | 33811 ft | 451 kts | 273° |
| 2026-04-23 15:38 | 22.85681 | 45.93162 | 33828 ft | 451 kts | 273° |
| 2026-04-23 15:39 | 22.86164 | 45.86380 | 33801 ft | 451 kts | 273° |
| 2026-04-23 15:39 | 22.86643 | 45.79618 | 33799 ft | 449 kts | 273° |
| 2026-04-23 15:40 | 22.87118 | 45.72881 | 33802 ft | 447 kts | 273° |
| 2026-04-23 15:40 | 22.87588 | 45.66173 | 33805 ft | 446 kts | 273° |
| 2026-04-23 15:41 | 22.88053 | 45.59480 | 33801 ft | 445 kts | 273° |
| 2026-04-23 15:41 | 22.88515 | 45.52792 | 33800 ft | 444 kts | 273° |
| 2026-04-23 15:42 | 22.88975 | 45.46110 | 33807 ft | 444 kts | 273° |
| 2026-04-23 15:42 | 22.89431 | 45.39423 | 33806 ft | 444 kts | 272° |
| 2026-04-23 15:43 | 22.89885 | 45.32741 | 33807 ft | 444 kts | 273° |
| 2026-04-23 15:43 | 22.90335 | 45.26066 | 33808 ft | 444 kts | 272° |
| 2026-04-23 15:44 | 22.90782 | 45.19399 | 33807 ft | 443 kts | 272° |
| 2026-04-23 15:44 | 22.91226 | 45.12748 | 33809 ft | 442 kts | 272° |
| 2026-04-23 15:45 | 22.91664 | 45.06132 | 33811 ft | 442 kts | 272° |
| 2026-04-23 15:45 | 22.92103 | 44.99479 | 33794 ft | 443 kts | 272° |
| 2026-04-23 15:46 | 22.92540 | 44.92804 | 33800 ft | 444 kts | 272° |
| 2026-04-23 15:46 | 22.92976 | 44.86113 | 33804 ft | 445 kts | 272° |
| 2026-04-23 15:47 | 22.93411 | 44.79398 | 33798 ft | 447 kts | 272° |
| 2026-04-23 15:47 | 22.93844 | 44.72674 | 33799 ft | 447 kts | 272° |
| 2026-04-23 15:48 | 22.94709 | 44.65983 | 33806 ft | 449 kts | 280° |
| 2026-04-23 15:48 | 22.96505 | 44.59471 | 33813 ft | 451 kts | 286° |
| 2026-04-23 15:49 | 22.98535 | 44.53016 | 33805 ft | 452 kts | 286° |
| 2026-04-23 15:49 | 23.00547 | 44.46560 | 33801 ft | 452 kts | 285° |
| 2026-04-23 15:50 | 23.02543 | 44.40098 | 33805 ft | 452 kts | 285° |
| 2026-04-23 15:50 | 23.04533 | 44.33629 | 33825 ft | 452 kts | 285° |
| 2026-04-23 15:51 | 23.06523 | 44.27149 | 33823 ft | 452 kts | 285° |
| 2026-04-23 15:51 | 23.08499 | 44.20703 | 33817 ft | 453 kts | 285° |
| 2026-04-23 15:52 | 23.10492 | 44.14193 | 33849 ft | 456 kts | 285° |
| 2026-04-23 15:52 | 23.12494 | 44.07641 | 33848 ft | 458 kts | 285° |
| 2026-04-23 15:53 | 23.14500 | 44.01067 | 33843 ft | 459 kts | 285° |
| 2026-04-23 15:53 | 23.16508 | 43.94478 | 33861 ft | 460 kts | 285° |
| 2026-04-23 15:54 | 23.18515 | 43.87879 | 33853 ft | 459 kts | 285° |
| 2026-04-23 15:54 | 23.20515 | 43.81291 | 33872 ft | 458 kts | 285° |
| 2026-04-23 15:55 | 23.22503 | 43.74735 | 33861 ft | 455 kts | 284° |
| 2026-04-23 15:55 | 23.24477 | 43.68213 | 33863 ft | 453 kts | 284° |
| 2026-04-23 15:56 | 23.26440 | 43.61712 | 33873 ft | 452 kts | 284° |
| 2026-04-23 15:56 | 23.28386 | 43.55261 | 33871 ft | 451 kts | 284° |
| 2026-04-23 15:57 | 23.30335 | 43.48778 | 33873 ft | 451 kts | 284° |
| 2026-04-23 15:57 | 23.32283 | 43.42283 | 33900 ft | 452 kts | 285° |
| 2026-04-23 15:58 | 23.34232 | 43.35775 | 33875 ft | 452 kts | 285° |
| 2026-04-23 15:58 | 23.36181 | 43.29259 | 33885 ft | 453 kts | 285° |
| 2026-04-23 15:59 | 23.38128 | 43.22734 | 33887 ft | 453 kts | 285° |
| 2026-04-23 15:59 | 23.40048 | 43.16297 | 33891 ft | 454 kts | 285° |
| 2026-04-23 16:00 | 23.41990 | 43.09751 | 33898 ft | 455 kts | 285° |
| 2026-04-23 16:00 | 23.43926 | 43.03195 | 33901 ft | 455 kts | 285° |
| 2026-04-23 16:01 | 23.45863 | 42.96632 | 33903 ft | 456 kts | 285° |
| 2026-04-23 16:01 | 23.47799 | 42.90050 | 33898 ft | 457 kts | 285° |
| 2026-04-23 16:02 | 23.49741 | 42.83443 | 33902 ft | 458 kts | 285° |
| 2026-04-23 16:02 | 23.51680 | 42.76838 | 33899 ft | 458 kts | 285° |
| 2026-04-23 16:03 | 23.53625 | 42.70228 | 33900 ft | 458 kts | 285° |
| 2026-04-23 16:03 | 23.55578 | 42.63622 | 33902 ft | 458 kts | 285° |
| 2026-04-23 16:04 | 23.57525 | 42.57022 | 33911 ft | 457 kts | 285° |
| 2026-04-23 16:04 | 23.59449 | 42.50480 | 33888 ft | 455 kts | 285° |
| 2026-04-23 16:05 | 23.61059 | 42.44996 | 33890 ft | 453 kts | 285° |
| 2026-04-23 16:05 | 23.63291 | 42.37384 | 33893 ft | 452 kts | 284° |
| 2026-04-23 16:06 | 23.65198 | 42.30865 | 33876 ft | 451 kts | 284° |
| 2026-04-23 16:06 | 23.67091 | 42.24351 | 33862 ft | 450 kts | 284° |
| 2026-04-23 16:07 | 23.68966 | 42.17836 | 33878 ft | 450 kts | 283° |
| 2026-04-23 16:07 | 23.70837 | 42.11323 | 33854 ft | 449 kts | 283° |
| 2026-04-23 16:08 | 23.72703 | 42.04822 | 33854 ft | 448 kts | 283° |
| 2026-04-23 16:08 | 23.74563 | 41.98337 | 33865 ft | 447 kts | 282° |
| 2026-04-23 16:09 | 23.76440 | 41.91871 | 33853 ft | 447 kts | 283° |
| 2026-04-23 16:09 | 23.78323 | 41.85404 | 33838 ft | 447 kts | 282° |
| 2026-04-23 16:10 | 23.80199 | 41.78938 | 33840 ft | 447 kts | 282° |
| 2026-04-23 16:10 | 23.82066 | 41.72464 | 33840 ft | 447 kts | 283° |
| 2026-04-23 16:11 | 23.83914 | 41.66025 | 33833 ft | 447 kts | 283° |
| 2026-04-23 16:11 | 23.85773 | 41.59542 | 33842 ft | 447 kts | 283° |
| 2026-04-23 16:12 | 23.87627 | 41.53063 | 33842 ft | 447 kts | 283° |
| 2026-04-23 16:12 | 23.89479 | 41.46569 | 33838 ft | 447 kts | 283° |
| 2026-04-23 16:13 | 23.91328 | 41.40078 | 33842 ft | 448 kts | 283° |
| 2026-04-23 16:13 | 23.94098 | 41.30329 | 33851 ft | 448 kts | 282° |
| 2026-04-23 16:14 | 23.95930 | 41.23864 | 33839 ft | 448 kts | 282° |
| 2026-04-23 16:14 | 23.97784 | 41.17311 | 33841 ft | 448 kts | 282° |
| 2026-04-23 16:15 | 23.99608 | 41.10851 | 33859 ft | 448 kts | 282° |
| 2026-04-23 16:15 | 24.01441 | 41.04345 | 33845 ft | 447 kts | 282° |
| 2026-04-23 16:16 | 24.03269 | 40.97850 | 33845 ft | 446 kts | 282° |
| 2026-04-23 16:16 | 24.05089 | 40.91368 | 33860 ft | 445 kts | 282° |
| 2026-04-23 16:17 | 24.06901 | 40.84898 | 33850 ft | 444 kts | 282° |
| 2026-04-23 16:17 | 24.08705 | 40.78445 | 33849 ft | 443 kts | 282° |
| 2026-04-23 16:18 | 24.10502 | 40.72005 | 33850 ft | 442 kts | 281° |
| 2026-04-23 16:18 | 24.12290 | 40.65583 | 33847 ft | 441 kts | 281° |
| 2026-04-23 16:19 | 24.14076 | 40.59157 | 33841 ft | 441 kts | 281° |
| 2026-04-23 16:19 | 24.15911 | 40.52737 | 33846 ft | 444 kts | 284° |
| 2026-04-23 16:20 | 24.18509 | 40.46554 | 33863 ft | 450 kts | 291° |
| 2026-04-23 16:20 | 24.21452 | 40.40499 | 33846 ft | 450 kts | 291° |
| 2026-04-23 16:21 | 24.24364 | 40.34446 | 33841 ft | 448 kts | 291° |
| 2026-04-23 16:21 | 24.27254 | 40.28398 | 33846 ft | 447 kts | 291° |
| 2026-04-23 16:22 | 24.29646 | 40.23380 | 33850 ft | 447 kts | 290° |
| 2026-04-23 16:22 | 24.32520 | 40.17342 | 33851 ft | 446 kts | 290° |
| 2026-04-23 16:23 | 24.35855 | 40.10329 | 33855 ft | 446 kts | 290° |
| 2026-04-23 16:23 | 24.38239 | 40.05310 | 33852 ft | 446 kts | 290° |
| 2026-04-23 16:24 | 24.41123 | 39.99230 | 33861 ft | 447 kts | 290° |
| 2026-04-23 16:24 | 24.43970 | 39.93219 | 33853 ft | 447 kts | 290° |
| 2026-04-23 16:25 | 24.46836 | 39.87162 | 33854 ft | 447 kts | 290° |
| 2026-04-23 16:25 | 24.49701 | 39.81100 | 33859 ft | 448 kts | 290° |
| 2026-04-23 16:26 | 24.52600 | 39.75048 | 33861 ft | 450 kts | 294° |
| 2026-04-23 16:26 | 24.56529 | 39.69564 | 33866 ft | 463 kts | 306° |
| 2026-04-23 16:27 | 24.61485 | 39.64918 | 33864 ft | 473 kts | 315° |
| 2026-04-23 16:27 | 24.66845 | 39.60723 | 33858 ft | 472 kts | 316° |
| 2026-04-23 16:28 | 24.72186 | 39.56541 | 33873 ft | 470 kts | 315° |
| 2026-04-23 16:28 | 24.77486 | 39.52330 | 33861 ft | 470 kts | 315° |
| 2026-04-23 16:29 | 24.82773 | 39.48098 | 33847 ft | 470 kts | 315° |
| 2026-04-23 16:29 | 24.88063 | 39.43855 | 33859 ft | 470 kts | 315° |
| 2026-04-23 16:30 | 24.93345 | 39.39620 | 33851 ft | 469 kts | 314° |
| 2026-04-23 16:30 | 24.98590 | 39.35410 | 33857 ft | 469 kts | 314° |
| 2026-04-23 16:31 | 25.03865 | 39.31172 | 33846 ft | 469 kts | 314° |
| 2026-04-23 16:31 | 25.09140 | 39.26929 | 33843 ft | 469 kts | 314° |
| 2026-04-23 16:32 | 25.14407 | 39.22686 | 33844 ft | 469 kts | 314° |
| 2026-04-23 16:32 | 25.19595 | 39.18340 | 33852 ft | 461 kts | 309° |
| 2026-04-23 16:33 | 25.23925 | 39.13252 | 33843 ft | 450 kts | 300° |
| 2026-04-23 16:33 | 25.27424 | 39.07631 | 33845 ft | 443 kts | 295° |
| 2026-04-23 16:34 | 25.30722 | 39.01927 | 33836 ft | 443 kts | 295° |
| 2026-04-23 16:34 | 25.34007 | 38.96264 | 33882 ft | 446 kts | 295° |
| 2026-04-23 16:35 | 25.35720 | 38.93337 | 34132 ft | 446 kts | 295° |
| 2026-04-23 16:35 | 25.37407 | 38.90472 | 34472 ft | 443 kts | 295° |
| 2026-04-23 16:35 | 25.39089 | 38.87625 | 34833 ft | 440 kts | 295° |
| 2026-04-23 16:35 | 25.40754 | 38.84794 | 35137 ft | 439 kts | 295° |
| 2026-04-23 16:36 | 25.42408 | 38.81962 | 35413 ft | 437 kts | 294° |
| 2026-04-23 16:36 | 25.44046 | 38.79136 | 35696 ft | 436 kts | 294° |
| 2026-04-23 16:36 | 25.47311 | 38.73446 | 35790 ft | 439 kts | 294° |
| 2026-04-23 16:37 | 25.50596 | 38.67768 | 35803 ft | 436 kts | 294° |
| 2026-04-23 16:37 | 25.53894 | 38.62153 | 35807 ft | 434 kts | 294° |
| 2026-04-23 16:38 | 25.57166 | 38.56546 | 35809 ft | 433 kts | 294° |
| 2026-04-23 16:38 | 25.60400 | 38.50907 | 35810 ft | 433 kts | 294° |
| 2026-04-23 16:39 | 25.63631 | 38.45264 | 35803 ft | 434 kts | 294° |
| 2026-04-23 16:39 | 25.66902 | 38.39613 | 35807 ft | 437 kts | 294° |
| 2026-04-23 16:40 | 25.70191 | 38.33932 | 35809 ft | 439 kts | 294° |
| 2026-04-23 16:40 | 25.73460 | 38.28274 | 35805 ft | 438 kts | 294° |
| 2026-04-23 16:41 | 25.76739 | 38.22582 | 35796 ft | 437 kts | 294° |
| 2026-04-23 16:41 | 25.80002 | 38.16907 | 35814 ft | 435 kts | 294° |
| 2026-04-23 16:42 | 25.83237 | 38.11281 | 35803 ft | 430 kts | 294° |
| 2026-04-23 16:42 | 25.86444 | 38.05692 | 35806 ft | 429 kts | 294° |
| 2026-04-23 16:43 | 25.89647 | 38.00095 | 35826 ft | 429 kts | 294° |
| 2026-04-23 16:43 | 25.92853 | 37.94490 | 35857 ft | 431 kts | 293° |
| 2026-04-23 16:44 | 25.96067 | 37.88869 | 35843 ft | 431 kts | 293° |
| 2026-04-23 16:44 | 25.99016 | 37.83169 | 35829 ft | 422 kts | 285° |
| 2026-04-23 16:45 | 26.00936 | 37.77074 | 35848 ft | 415 kts | 278° |
| 2026-04-23 16:45 | 26.01960 | 37.70827 | 35873 ft | 410 kts | 272° |
| 2026-04-23 16:46 | 26.02773 | 37.64573 | 35868 ft | 406 kts | 272° |
| 2026-04-23 16:46 | 26.03607 | 37.58353 | 35860 ft | 407 kts | 272° |
| 2026-04-23 16:47 | 26.04455 | 37.52127 | 35847 ft | 407 kts | 272° |
| 2026-04-23 16:47 | 26.05290 | 37.45911 | 35866 ft | 407 kts | 272° |
| 2026-04-23 16:48 | 26.06118 | 37.39665 | 35847 ft | 409 kts | 272° |
| 2026-04-23 16:48 | 26.06953 | 37.33406 | 35839 ft | 409 kts | 272° |
| 2026-04-23 16:49 | 26.07776 | 37.27149 | 35825 ft | 409 kts | 272° |
| 2026-04-23 16:49 | 26.08598 | 37.20895 | 35823 ft | 409 kts | 272° |
| 2026-04-23 16:50 | 26.09422 | 37.14636 | 35810 ft | 409 kts | 272° |
| 2026-04-23 16:50 | 26.10242 | 37.08374 | 35832 ft | 409 kts | 272° |
| 2026-04-23 16:51 | 26.11059 | 37.02111 | 35809 ft | 409 kts | 272° |
| 2026-04-23 16:51 | 26.11874 | 36.95844 | 35814 ft | 410 kts | 272° |
| 2026-04-23 16:52 | 26.12687 | 36.89564 | 35776 ft | 410 kts | 272° |
| 2026-04-23 16:52 | 26.13498 | 36.83281 | 35798 ft | 411 kts | 272° |
| 2026-04-23 16:53 | 26.14259 | 36.77366 | 35797 ft | 411 kts | 272° |
| 2026-04-23 16:53 | 26.15057 | 36.71116 | 35800 ft | 412 kts | 272° |
| 2026-04-23 16:54 | 26.15864 | 36.64792 | 35792 ft | 413 kts | 272° |
| 2026-04-23 16:54 | 26.16669 | 36.58498 | 35791 ft | 413 kts | 272° |
| 2026-04-23 16:55 | 26.17423 | 36.52160 | 35772 ft | 410 kts | 268° |
| 2026-04-23 16:55 | 26.17227 | 36.45887 | 35778 ft | 403 kts | 259° |
| 2026-04-23 16:56 | 26.16715 | 36.39730 | 35769 ft | 394 kts | 251° |
| 2026-04-23 16:56 | 26.14274 | 36.34288 | 35777 ft | 395 kts | 240° |
| 2026-04-23 16:57 | 26.12309 | 36.28585 | 35774 ft | 402 kts | 259° |
| 2026-04-23 16:57 | 26.12272 | 36.25449 | 35803 ft | 411 kts | 270° |
| 2026-04-23 16:57 | 26.12709 | 36.22284 | 35790 ft | 417 kts | 274° |
| 2026-04-23 16:58 | 26.13308 | 36.15923 | 35777 ft | 409 kts | 261° |
| 2026-04-23 16:58 | 26.11934 | 36.09913 | 35797 ft | 403 kts | 247° |
| 2026-04-23 16:59 | 26.10139 | 36.03998 | 35775 ft | 406 kts | 256° |
| 2026-04-23 16:59 | 26.09901 | 35.97677 | 35794 ft | 414 kts | 268° |
| 2026-04-23 17:00 | 26.09999 | 35.91313 | 35778 ft | 407 kts | 260° |
| 2026-04-23 17:00 | 26.08985 | 35.85187 | 35790 ft | 402 kts | 255° |
| 2026-04-23 17:01 | 26.08738 | 35.82093 | 35792 ft | 406 kts | 268° |
| 2026-04-23 17:01 | 26.08917 | 35.78964 | 35785 ft | 403 kts | 264° |
| 2026-04-23 17:01 | 26.08327 | 35.72867 | 35801 ft | 399 kts | 256° |
| 2026-04-23 17:02 | 26.07517 | 35.66724 | 35795 ft | 404 kts | 259° |
| 2026-04-23 17:02 | 26.07035 | 35.60508 | 35794 ft | 407 kts | 260° |
| 2026-04-23 17:03 | 26.06395 | 35.54259 | 35793 ft | 407 kts | 259° |
| 2026-04-23 17:03 | 26.05720 | 35.48002 | 35802 ft | 408 kts | 259° |
| 2026-04-23 17:04 | 26.05071 | 35.41741 | 35773 ft | 408 kts | 259° |
| 2026-04-23 17:04 | 26.04421 | 35.35489 | 35783 ft | 406 kts | 259° |
| 2026-04-23 17:05 | 26.03757 | 35.29261 | 35792 ft | 405 kts | 259° |
| 2026-04-23 17:05 | 26.03094 | 35.23054 | 35803 ft | 404 kts | 259° |
| 2026-04-23 17:06 | 26.02434 | 35.16889 | 35800 ft | 404 kts | 259° |
| 2026-04-23 17:06 | 26.01766 | 35.10679 | 35804 ft | 404 kts | 259° |
| 2026-04-23 17:07 | 26.01098 | 35.04471 | 35803 ft | 405 kts | 259° |
| 2026-04-23 17:07 | 26.00436 | 34.98249 | 35812 ft | 406 kts | 259° |
| 2026-04-23 17:08 | 25.99769 | 34.91998 | 35802 ft | 408 kts | 259° |
| 2026-04-23 17:08 | 25.99095 | 34.85723 | 35804 ft | 410 kts | 259° |
| 2026-04-23 17:09 | 25.98416 | 34.79424 | 35803 ft | 411 kts | 259° |
| 2026-04-23 17:09 | 25.97732 | 34.73109 | 35819 ft | 412 kts | 259° |
| 2026-04-23 17:10 | 25.97045 | 34.66785 | 35809 ft | 413 kts | 259° |
| 2026-04-23 17:10 | 25.96359 | 34.60501 | 35807 ft | 413 kts | 259° |
| 2026-04-23 17:11 | 25.95666 | 34.54176 | 35808 ft | 412 kts | 259° |
| 2026-04-23 17:11 | 25.94971 | 34.47852 | 35810 ft | 412 kts | 259° |
| 2026-04-23 17:12 | 25.94274 | 34.41547 | 35813 ft | 411 kts | 259° |
| 2026-04-23 17:12 | 25.93579 | 34.35250 | 35817 ft | 410 kts | 258° |
| 2026-04-23 17:13 | 25.92882 | 34.28963 | 35816 ft | 410 kts | 258° |
| 2026-04-23 17:13 | 25.92301 | 34.23743 | 35816 ft | 409 kts | 258° |
| 2026-04-23 17:14 | 25.91905 | 34.17450 | 35814 ft | 415 kts | 272° |
| 2026-04-23 17:14 | 25.93640 | 34.11180 | 35831 ft | 431 kts | 287° |
| 2026-04-23 17:15 | 25.95212 | 34.08339 | 35815 ft | 446 kts | 299° |
| 2026-04-23 17:15 | 25.97225 | 34.05699 | 35831 ft | 449 kts | 301° |
| 2026-04-23 17:15 | 26.01354 | 34.00463 | 35827 ft | 452 kts | 301° |
| 2026-04-23 17:16 | 26.05467 | 33.95175 | 35839 ft | 453 kts | 301° |
| 2026-04-23 17:16 | 26.09562 | 33.89823 | 35833 ft | 454 kts | 300° |
| 2026-04-23 17:17 | 26.13636 | 33.84462 | 35832 ft | 454 kts | 300° |
| 2026-04-23 17:17 | 26.17707 | 33.79094 | 35831 ft | 454 kts | 300° |
| 2026-04-23 17:18 | 26.23817 | 33.71032 | 35830 ft | 454 kts | 300° |
| 2026-04-23 17:19 | 26.27840 | 33.65703 | 35859 ft | 452 kts | 301° |
| 2026-04-23 17:19 | 26.31900 | 33.60349 | 35833 ft | 452 kts | 301° |
| 2026-04-23 17:20 | 26.35942 | 33.54986 | 35833 ft | 450 kts | 300° |
| 2026-04-23 17:21 | 26.44024 | 33.44273 | 35840 ft | 452 kts | 300° |
| 2026-04-23 17:21 | 26.50094 | 33.36193 | 35833 ft | 453 kts | 300° |
| 2026-04-23 17:22 | 26.56170 | 33.28099 | 35828 ft | 453 kts | 300° |
| 2026-04-23 17:23 | 26.62238 | 33.20000 | 35822 ft | 452 kts | 300° |
| 2026-04-23 17:24 | 26.68286 | 33.11912 | 35833 ft | 451 kts | 300° |
| 2026-04-23 17:24 | 26.74271 | 33.03894 | 35795 ft | 448 kts | 300° |
| 2026-04-23 17:25 | 26.80259 | 32.95857 | 35797 ft | 445 kts | 300° |
| 2026-04-23 17:26 | 26.88124 | 32.85273 | 35805 ft | 444 kts | 300° |
| 2026-04-23 17:27 | 26.94048 | 32.77284 | 35796 ft | 445 kts | 300° |
| 2026-04-23 17:27 | 26.98000 | 32.71949 | 35800 ft | 445 kts | 300° |
| 2026-04-23 17:28 | 27.01959 | 32.66596 | 35810 ft | 446 kts | 300° |
| 2026-04-23 17:28 | 27.05895 | 32.61270 | 35824 ft | 447 kts | 300° |
| 2026-04-23 17:29 | 27.09884 | 32.55861 | 35823 ft | 448 kts | 301° |
| 2026-04-23 17:30 | 27.15859 | 32.47754 | 35824 ft | 451 kts | 301° |
| 2026-04-23 17:30 | 27.21833 | 32.39632 | 35833 ft | 452 kts | 301° |
| 2026-04-23 17:31 | 27.25837 | 32.34179 | 35836 ft | 452 kts | 302° |
| 2026-04-23 17:31 | 27.29837 | 32.28726 | 35835 ft | 452 kts | 302° |
| 2026-04-23 17:32 | 27.33724 | 32.23196 | 35834 ft | 449 kts | 300° |
| 2026-04-23 17:32 | 27.37514 | 32.17612 | 35851 ft | 448 kts | 300° |
| 2026-04-23 17:33 | 27.41303 | 32.12036 | 35848 ft | 448 kts | 300° |
| 2026-04-23 17:33 | 27.45101 | 32.06468 | 35878 ft | 448 kts | 300° |
| 2026-04-23 17:34 | 27.48897 | 32.00909 | 35878 ft | 448 kts | 301° |
| 2026-04-23 17:35 | 27.54573 | 31.92590 | 35892 ft | 448 kts | 301° |
| 2026-04-23 17:35 | 27.60270 | 31.84221 | 35908 ft | 448 kts | 301° |
| 2026-04-23 17:36 | 27.64064 | 31.78639 | 35931 ft | 448 kts | 301° |
| 2026-04-23 17:36 | 27.67852 | 31.73058 | 35933 ft | 448 kts | 301° |
| 2026-04-23 17:37 | 27.71642 | 31.67467 | 35922 ft | 448 kts | 301° |
| 2026-04-23 17:38 | 27.77320 | 31.59078 | 35934 ft | 448 kts | 301° |
| 2026-04-23 17:38 | 27.81097 | 31.53488 | 35936 ft | 448 kts | 301° |
| 2026-04-23 17:39 | 27.84874 | 31.47889 | 35948 ft | 448 kts | 301° |
| 2026-04-23 17:39 | 27.88651 | 31.42286 | 35959 ft | 448 kts | 301° |
| 2026-04-23 17:40 | 27.92431 | 31.36669 | 35955 ft | 449 kts | 301° |
| 2026-04-23 17:40 | 27.96210 | 31.31047 | 35942 ft | 449 kts | 301° |
| 2026-04-23 17:41 | 27.99962 | 31.25456 | 35936 ft | 449 kts | 301° |
| 2026-04-23 17:41 | 28.05627 | 31.17004 | 35932 ft | 449 kts | 301° |
| 2026-04-23 17:42 | 28.10982 | 31.08332 | 35926 ft | 447 kts | 298° |
| 2026-04-23 17:43 | 28.14413 | 31.02470 | 35925 ft | 446 kts | 298° |
| 2026-04-23 17:43 | 28.17849 | 30.96610 | 35935 ft | 446 kts | 298° |
| 2026-04-23 17:44 | 28.21291 | 30.90755 | 35927 ft | 447 kts | 298° |
| 2026-04-23 17:44 | 28.26440 | 30.81995 | 35929 ft | 447 kts | 298° |
| 2026-04-23 17:45 | 28.31609 | 30.73183 | 35932 ft | 448 kts | 298° |
| 2026-04-23 17:46 | 28.36782 | 30.64347 | 35926 ft | 448 kts | 298° |
| 2026-04-23 17:46 | 28.40229 | 30.58448 | 35921 ft | 449 kts | 298° |
| 2026-04-23 17:47 | 28.43681 | 30.52534 | 35924 ft | 449 kts | 298° |
| 2026-04-23 17:48 | 28.48846 | 30.43667 | 35922 ft | 449 kts | 298° |
| 2026-04-23 17:48 | 28.52288 | 30.37746 | 35929 ft | 449 kts | 299° |
| 2026-04-23 17:49 | 28.55729 | 30.31822 | 35922 ft | 449 kts | 299° |
| 2026-04-23 17:49 | 28.59167 | 30.25893 | 35921 ft | 449 kts | 299° |
| 2026-04-23 17:50 | 28.62580 | 30.19999 | 35915 ft | 449 kts | 298° |
| 2026-04-23 17:50 | 28.67725 | 30.11098 | 35933 ft | 449 kts | 299° |
| 2026-04-23 17:51 | 28.71148 | 30.05166 | 35918 ft | 448 kts | 299° |
| 2026-04-23 17:52 | 28.76278 | 29.96260 | 35925 ft | 448 kts | 299° |
| 2026-04-23 17:52 | 28.81396 | 29.87356 | 35913 ft | 448 kts | 299° |
| 2026-04-23 17:53 | 28.86510 | 29.78440 | 35915 ft | 447 kts | 299° |
| 2026-04-23 17:54 | 28.89907 | 29.72506 | 35911 ft | 447 kts | 299° |
| 2026-04-23 17:54 | 28.95003 | 29.63589 | 35910 ft | 446 kts | 299° |
| 2026-04-23 17:55 | 29.00063 | 29.54716 | 35911 ft | 446 kts | 299° |
| 2026-04-23 17:56 | 29.03451 | 29.48765 | 35913 ft | 447 kts | 299° |
| 2026-04-23 17:56 | 29.08528 | 29.39831 | 35907 ft | 447 kts | 299° |
| 2026-04-23 17:57 | 29.12249 | 29.34116 | 35906 ft | 452 kts | 308° |
| 2026-04-23 17:58 | 29.19334 | 29.26900 | 35915 ft | 459 kts | 318° |
| 2026-04-23 17:58 | 29.24471 | 29.22547 | 35906 ft | 459 kts | 319° |
| 2026-04-23 17:59 | 29.29592 | 29.18171 | 35907 ft | 459 kts | 318° |
| 2026-04-23 17:59 | 29.34686 | 29.13768 | 35907 ft | 459 kts | 318° |
| 2026-04-23 18:00 | 29.39775 | 29.09358 | 35904 ft | 459 kts | 318° |
| 2026-04-23 18:00 | 29.44864 | 29.04936 | 35909 ft | 458 kts | 318° |
| 2026-04-23 18:01 | 29.49910 | 29.00522 | 35926 ft | 458 kts | 318° |
| 2026-04-23 18:01 | 29.54986 | 28.96071 | 35908 ft | 459 kts | 318° |
| 2026-04-23 18:02 | 29.59202 | 28.92372 | 35910 ft | 459 kts | 318° |
| 2026-04-23 18:02 | 29.65140 | 28.87158 | 35902 ft | 459 kts | 318° |
| 2026-04-23 18:03 | 29.70219 | 28.82692 | 35906 ft | 459 kts | 318° |
| 2026-04-23 18:03 | 29.75289 | 28.78229 | 35906 ft | 459 kts | 318° |
| 2026-04-23 18:04 | 29.80364 | 28.73754 | 35902 ft | 459 kts | 318° |
| 2026-04-23 18:04 | 29.84580 | 28.70033 | 35901 ft | 460 kts | 317° |
| 2026-04-23 18:05 | 29.89659 | 28.65545 | 35908 ft | 460 kts | 317° |
| 2026-04-23 18:05 | 29.94734 | 28.61054 | 35916 ft | 460 kts | 317° |
| 2026-04-23 18:06 | 29.99800 | 28.56565 | 35913 ft | 459 kts | 317° |
| 2026-04-23 18:06 | 30.04862 | 28.52074 | 35916 ft | 459 kts | 317° |
| 2026-04-23 18:07 | 30.09924 | 28.47577 | 35916 ft | 459 kts | 317° |
| 2026-04-23 18:07 | 30.14979 | 28.43081 | 35921 ft | 458 kts | 317° |
| 2026-04-23 18:08 | 30.20035 | 28.38577 | 35925 ft | 458 kts | 317° |
| 2026-04-23 18:08 | 30.25083 | 28.34074 | 35930 ft | 458 kts | 317° |
| 2026-04-23 18:09 | 30.30130 | 28.29566 | 35925 ft | 458 kts | 317° |
| 2026-04-23 18:09 | 30.35168 | 28.25060 | 35925 ft | 458 kts | 317° |
| 2026-04-23 18:10 | 30.40174 | 28.20577 | 35923 ft | 457 kts | 317° |
| 2026-04-23 18:10 | 30.45209 | 28.16062 | 35957 ft | 458 kts | 317° |
| 2026-04-23 18:11 | 30.50245 | 28.11539 | 35937 ft | 458 kts | 317° |
| 2026-04-23 18:11 | 30.55281 | 28.07012 | 35938 ft | 458 kts | 317° |
| 2026-04-23 18:12 | 30.60306 | 28.02488 | 35939 ft | 457 kts | 317° |
| 2026-04-23 18:12 | 30.65328 | 27.97960 | 35937 ft | 457 kts | 317° |
| 2026-04-23 18:13 | 30.70346 | 27.93430 | 35944 ft | 456 kts | 317° |
| 2026-04-23 18:13 | 30.75356 | 27.88900 | 35944 ft | 456 kts | 317° |
| 2026-04-23 18:14 | 30.80356 | 27.84373 | 35955 ft | 456 kts | 317° |
| 2026-04-23 18:14 | 30.85360 | 27.79838 | 35948 ft | 456 kts | 317° |
| 2026-04-23 18:15 | 30.90362 | 27.75297 | 35951 ft | 456 kts | 317° |
| 2026-04-23 18:15 | 30.95355 | 27.70758 | 35952 ft | 455 kts | 316° |
| 2026-04-23 18:16 | 31.00351 | 27.66210 | 35952 ft | 455 kts | 316° |
| 2026-04-23 18:16 | 31.05340 | 27.61662 | 35950 ft | 455 kts | 316° |
| 2026-04-23 18:17 | 31.12607 | 27.54582 | 35958 ft | 450 kts | 309° |
| 2026-04-23 18:17 | 31.16536 | 27.49042 | 35939 ft | 443 kts | 300° |
| 2026-04-23 18:18 | 31.19965 | 27.43063 | 35943 ft | 443 kts | 299° |
| 2026-04-23 18:18 | 31.23396 | 27.37085 | 35944 ft | 443 kts | 300° |
| 2026-04-23 18:19 | 31.26844 | 27.31124 | 35941 ft | 443 kts | 300° |
| 2026-04-23 18:19 | 31.30193 | 27.25096 | 35938 ft | 440 kts | 294° |
| 2026-04-23 18:20 | 31.32654 | 27.18602 | 35945 ft | 436 kts | 287° |
| 2026-04-23 18:20 | 31.34302 | 27.11813 | 35953 ft | 433 kts | 281° |
| 2026-04-23 18:21 | 31.35736 | 27.04969 | 35947 ft | 433 kts | 281° |
| 2026-04-23 18:21 | 31.37175 | 26.98125 | 35947 ft | 433 kts | 281° |
| 2026-04-23 18:22 | 31.38616 | 26.91337 | 35946 ft | 433 kts | 281° |
| 2026-04-23 18:22 | 31.40071 | 26.84499 | 35956 ft | 433 kts | 281° |
| 2026-04-23 18:23 | 31.42249 | 26.74237 | 35939 ft | 433 kts | 281° |
| 2026-04-23 18:24 | 31.44415 | 26.63986 | 35939 ft | 432 kts | 281° |
| 2026-04-23 18:25 | 31.46572 | 26.53728 | 35943 ft | 432 kts | 281° |
| 2026-04-23 18:25 | 31.48006 | 26.46889 | 35933 ft | 432 kts | 281° |
| 2026-04-23 18:26 | 31.49436 | 26.40046 | 35933 ft | 432 kts | 281° |
| 2026-04-23 18:26 | 31.50862 | 26.33203 | 35931 ft | 432 kts | 281° |
| 2026-04-23 18:27 | 31.52283 | 26.26363 | 35930 ft | 432 kts | 281° |
| 2026-04-23 18:27 | 31.53702 | 26.19517 | 35929 ft | 432 kts | 281° |
| 2026-04-23 18:28 | 31.55107 | 26.12717 | 35922 ft | 432 kts | 281° |
| 2026-04-23 18:28 | 31.56517 | 26.05878 | 35926 ft | 432 kts | 281° |
| 2026-04-23 18:29 | 31.57834 | 25.99016 | 35919 ft | 430 kts | 277° |
| 2026-04-23 18:29 | 31.58695 | 25.92080 | 35931 ft | 430 kts | 276° |
| 2026-04-23 18:30 | 31.59545 | 25.85145 | 35920 ft | 430 kts | 276° |
| 2026-04-23 18:30 | 31.60403 | 25.78213 | 35929 ft | 429 kts | 276° |
| 2026-04-23 18:31 | 31.61262 | 25.71279 | 35920 ft | 429 kts | 276° |
| 2026-04-23 18:31 | 31.62118 | 25.64348 | 35919 ft | 429 kts | 276° |
| 2026-04-23 18:32 | 31.62970 | 25.57415 | 35920 ft | 429 kts | 276° |
| 2026-04-23 18:32 | 31.63819 | 25.50479 | 35921 ft | 429 kts | 276° |
| 2026-04-23 18:33 | 31.64664 | 25.43537 | 35925 ft | 430 kts | 276° |
| 2026-04-23 18:33 | 31.65506 | 25.36593 | 35923 ft | 430 kts | 276° |
| 2026-04-23 18:34 | 31.66343 | 25.29650 | 35934 ft | 430 kts | 276° |
| 2026-04-23 18:34 | 31.67178 | 25.22701 | 35920 ft | 429 kts | 276° |
| 2026-04-23 18:35 | 31.68388 | 25.15861 | 35922 ft | 431 kts | 288° |
| 2026-04-23 18:35 | 31.71119 | 25.09629 | 35924 ft | 436 kts | 300° |
| 2026-04-23 18:36 | 31.75064 | 25.04149 | 35924 ft | 441 kts | 307° |
| 2026-04-23 18:36 | 31.79193 | 24.98811 | 35929 ft | 441 kts | 307° |
| 2026-04-23 18:37 | 31.83307 | 24.93442 | 35923 ft | 441 kts | 307° |
| 2026-04-23 18:37 | 31.87391 | 24.88050 | 35924 ft | 441 kts | 307° |
| 2026-04-23 18:38 | 31.91460 | 24.82646 | 35921 ft | 441 kts | 307° |
| 2026-04-23 18:38 | 31.95522 | 24.77242 | 35934 ft | 441 kts | 306° |
| 2026-04-23 18:39 | 31.99584 | 24.71831 | 35919 ft | 440 kts | 306° |
| 2026-04-23 18:39 | 32.03603 | 24.66469 | 35918 ft | 439 kts | 306° |
| 2026-04-23 18:40 | 32.07644 | 24.61073 | 35919 ft | 438 kts | 306° |
| 2026-04-23 18:40 | 32.11670 | 24.55687 | 35921 ft | 438 kts | 306° |
| 2026-04-23 18:41 | 32.15700 | 24.50287 | 35921 ft | 438 kts | 306° |
| 2026-04-23 18:41 | 32.19719 | 24.44896 | 35920 ft | 438 kts | 306° |
| 2026-04-23 18:42 | 32.23737 | 24.39497 | 35924 ft | 438 kts | 306° |
| 2026-04-23 18:42 | 32.27758 | 24.34086 | 35926 ft | 438 kts | 306° |
| 2026-04-23 18:43 | 32.31783 | 24.28663 | 35925 ft | 439 kts | 306° |
| 2026-04-23 18:43 | 32.35804 | 24.23237 | 35919 ft | 438 kts | 306° |
| 2026-04-23 18:44 | 32.39821 | 24.17809 | 35923 ft | 438 kts | 306° |
| 2026-04-23 18:44 | 32.43825 | 24.12390 | 35926 ft | 437 kts | 306° |
| 2026-04-23 18:45 | 32.47824 | 24.06970 | 35926 ft | 437 kts | 306° |
| 2026-04-23 18:45 | 32.51821 | 24.01544 | 35932 ft | 437 kts | 306° |
| 2026-04-23 18:46 | 32.55819 | 23.96109 | 35930 ft | 438 kts | 306° |
| 2026-04-23 18:46 | 32.59818 | 23.90664 | 35934 ft | 438 kts | 306° |
| 2026-04-23 18:47 | 32.63818 | 23.85211 | 35936 ft | 438 kts | 306° |
| 2026-04-23 18:47 | 32.67818 | 23.79749 | 35931 ft | 438 kts | 306° |
| 2026-04-23 18:48 | 32.71817 | 23.74280 | 35941 ft | 438 kts | 306° |
| 2026-04-23 18:48 | 32.75807 | 23.68816 | 35932 ft | 438 kts | 306° |
| 2026-04-23 18:49 | 32.79765 | 23.63388 | 35936 ft | 437 kts | 306° |
| 2026-04-23 18:49 | 32.83739 | 23.57928 | 35936 ft | 436 kts | 306° |
| 2026-04-23 18:50 | 32.86396 | 23.54274 | 35933 ft | 436 kts | 306° |
| 2026-04-23 18:50 | 32.91671 | 23.47008 | 35939 ft | 436 kts | 306° |
| 2026-04-23 18:51 | 32.95626 | 23.41548 | 35939 ft | 435 kts | 306° |
| 2026-04-23 18:51 | 32.99581 | 23.36085 | 35947 ft | 436 kts | 305° |
| 2026-04-23 18:52 | 33.03527 | 23.30611 | 35940 ft | 435 kts | 305° |
| 2026-04-23 18:52 | 33.07453 | 23.25142 | 35939 ft | 434 kts | 305° |
| 2026-04-23 18:53 | 33.11370 | 23.19676 | 35944 ft | 433 kts | 305° |
| 2026-04-23 18:53 | 33.14622 | 23.15134 | 35945 ft | 433 kts | 305° |
| 2026-04-23 18:54 | 33.18529 | 23.09669 | 35949 ft | 433 kts | 305° |
| 2026-04-23 18:54 | 33.22437 | 23.04195 | 35946 ft | 433 kts | 305° |
| 2026-04-23 18:55 | 33.26350 | 22.98706 | 35952 ft | 434 kts | 305° |
| 2026-04-23 18:55 | 33.30267 | 22.93203 | 35952 ft | 435 kts | 305° |
| 2026-04-23 18:56 | 33.34196 | 22.87674 | 35958 ft | 437 kts | 305° |
| 2026-04-23 18:56 | 33.38130 | 22.82130 | 35953 ft | 438 kts | 305° |
| 2026-04-23 18:57 | 33.42050 | 22.76599 | 35954 ft | 438 kts | 306° |
| 2026-04-23 18:57 | 33.45993 | 22.71025 | 35954 ft | 439 kts | 306° |
| 2026-04-23 18:58 | 33.49936 | 22.65443 | 35950 ft | 439 kts | 306° |
| 2026-04-23 18:58 | 33.53882 | 22.59850 | 35954 ft | 439 kts | 306° |
| 2026-04-23 18:59 | 33.57819 | 22.54259 | 35960 ft | 439 kts | 306° |
| 2026-04-23 18:59 | 33.61758 | 22.48657 | 35960 ft | 439 kts | 306° |
| 2026-04-23 19:00 | 33.65686 | 22.43061 | 35963 ft | 438 kts | 306° |
| 2026-04-23 19:00 | 33.69610 | 22.37462 | 35961 ft | 437 kts | 306° |
| 2026-04-23 19:01 | 33.73496 | 22.31910 | 35962 ft | 436 kts | 306° |
| 2026-04-23 19:01 | 33.77392 | 22.26334 | 35961 ft | 435 kts | 306° |
| 2026-04-23 19:02 | 33.81282 | 22.20758 | 35962 ft | 435 kts | 306° |
| 2026-04-23 19:02 | 33.85164 | 22.15184 | 35962 ft | 435 kts | 306° |
| 2026-04-23 19:03 | 33.89043 | 22.09606 | 35964 ft | 435 kts | 306° |
| 2026-04-23 19:03 | 33.92923 | 22.04018 | 35966 ft | 435 kts | 306° |
| 2026-04-23 19:04 | 33.96804 | 21.98420 | 35965 ft | 435 kts | 306° |
| 2026-04-23 19:04 | 34.00687 | 21.92817 | 35965 ft | 436 kts | 306° |
| 2026-04-23 19:05 | 34.04626 | 21.87252 | 35970 ft | 437 kts | 306° |
| 2026-04-23 19:05 | 34.08556 | 21.81729 | 35967 ft | 437 kts | 306° |
| 2026-04-23 19:06 | 34.12502 | 21.76159 | 35963 ft | 437 kts | 306° |
| 2026-04-23 19:06 | 34.16447 | 21.70573 | 35968 ft | 437 kts | 306° |
| 2026-04-23 19:07 | 34.20382 | 21.64990 | 35968 ft | 437 kts | 306° |
| 2026-04-23 19:07 | 34.24318 | 21.59397 | 35968 ft | 437 kts | 306° |
| 2026-04-23 19:08 | 34.28253 | 21.53799 | 35970 ft | 437 kts | 306° |
| 2026-04-23 19:08 | 34.32555 | 21.48606 | 35982 ft | 445 kts | 320° |
| 2026-04-23 19:09 | 34.38156 | 21.45212 | 35969 ft | 460 kts | 337° |
| 2026-04-23 19:09 | 34.44441 | 21.43513 | 35978 ft | 464 kts | 342° |
| 2026-04-23 19:10 | 34.50780 | 21.41973 | 35975 ft | 465 kts | 341° |
| 2026-04-23 19:10 | 34.57112 | 21.40377 | 36015 ft | 465 kts | 341° |
| 2026-04-23 19:11 | 34.63443 | 21.38730 | 35983 ft | 465 kts | 341° |
| 2026-04-23 19:11 | 34.69771 | 21.37066 | 35976 ft | 465 kts | 341° |
| 2026-04-23 19:12 | 34.75026 | 21.35683 | 35979 ft | 465 kts | 341° |
| 2026-04-23 19:12 | 34.82407 | 21.33740 | 36013 ft | 464 kts | 340° |
| 2026-04-23 19:13 | 34.88719 | 21.32076 | 35985 ft | 464 kts | 340° |
| 2026-04-23 19:13 | 34.94986 | 21.30421 | 35982 ft | 464 kts | 340° |
| 2026-04-23 19:14 | 35.01293 | 21.28764 | 35984 ft | 464 kts | 342° |
| 2026-04-23 19:14 | 35.07723 | 21.27634 | 36023 ft | 469 kts | 346° |
| 2026-04-23 19:15 | 35.14214 | 21.26737 | 35993 ft | 469 kts | 346° |
| 2026-04-23 19:15 | 35.20694 | 21.25822 | 35988 ft | 469 kts | 346° |
| 2026-04-23 19:16 | 35.27170 | 21.24861 | 35998 ft | 468 kts | 345° |
| 2026-04-23 19:16 | 35.33641 | 21.23878 | 36005 ft | 468 kts | 345° |
| 2026-04-23 19:17 | 35.43352 | 21.22396 | 35997 ft | 469 kts | 345° |
| 2026-04-23 19:17 | 35.49834 | 21.21407 | 35998 ft | 469 kts | 345° |
| 2026-04-23 19:18 | 35.56316 | 21.20418 | 36043 ft | 470 kts | 345° |
| 2026-04-23 19:18 | 35.62811 | 21.19424 | 36007 ft | 471 kts | 345° |
| 2026-04-23 19:19 | 35.72353 | 21.17962 | 35998 ft | 470 kts | 345° |
| 2026-04-23 19:20 | 35.82085 | 21.16469 | 36017 ft | 469 kts | 345° |
| 2026-04-23 19:20 | 35.88514 | 21.15477 | 36003 ft | 468 kts | 345° |
| 2026-04-23 19:21 | 35.98201 | 21.13985 | 35997 ft | 467 kts | 345° |
| 2026-04-23 19:22 | 36.04637 | 21.12991 | 36029 ft | 466 kts | 345° |
| 2026-04-23 19:22 | 36.14289 | 21.11495 | 36008 ft | 466 kts | 345° |
| 2026-04-23 19:23 | 36.20729 | 21.10495 | 36002 ft | 466 kts | 345° |
| 2026-04-23 19:24 | 36.30382 | 21.08993 | 36018 ft | 467 kts | 345° |
| 2026-04-23 19:24 | 36.40080 | 21.07480 | 36007 ft | 469 kts | 345° |
| 2026-04-23 19:25 | 36.53067 | 21.05450 | 35997 ft | 471 kts | 345° |
| 2026-04-23 19:26 | 36.62824 | 21.03920 | 35996 ft | 471 kts | 345° |
| 2026-04-23 19:27 | 36.79035 | 21.01369 | 35999 ft | 472 kts | 346° |
| 2026-04-23 19:28 | 36.92077 | 20.99308 | 35994 ft | 472 kts | 346° |
| 2026-04-23 19:29 | 37.01877 | 20.97755 | 36006 ft | 474 kts | 346° |
| 2026-04-23 19:30 | 37.11701 | 20.96194 | 35983 ft | 475 kts | 346° |
| 2026-04-23 19:31 | 37.21537 | 20.94628 | 35996 ft | 475 kts | 346° |
| 2026-04-23 19:31 | 37.28099 | 20.93580 | 35991 ft | 476 kts | 346° |
| 2026-04-23 19:32 | 37.34662 | 20.92532 | 35989 ft | 476 kts | 346° |
| 2026-04-23 19:32 | 37.41234 | 20.91479 | 35988 ft | 476 kts | 346° |
| 2026-04-23 19:33 | 37.47800 | 20.90426 | 36007 ft | 476 kts | 347° |
| 2026-04-23 19:33 | 37.57673 | 20.88836 | 35994 ft | 477 kts | 347° |
| 2026-04-23 19:34 | 37.64257 | 20.87775 | 35994 ft | 477 kts | 347° |
| 2026-04-23 19:35 | 37.74106 | 20.86184 | 36004 ft | 478 kts | 348° |
| 2026-04-23 19:35 | 37.80699 | 20.85116 | 35999 ft | 478 kts | 348° |
| 2026-04-23 19:36 | 37.87298 | 20.84046 | 35992 ft | 478 kts | 348° |
| 2026-04-23 19:36 | 37.93895 | 20.82975 | 36012 ft | 478 kts | 348° |
| 2026-04-23 19:37 | 38.00501 | 20.81899 | 35994 ft | 478 kts | 348° |
| 2026-04-23 19:37 | 38.07112 | 20.80820 | 35998 ft | 479 kts | 348° |
| 2026-04-23 19:38 | 38.13717 | 20.79740 | 35996 ft | 478 kts | 349° |
| 2026-04-23 19:38 | 38.20327 | 20.78658 | 36001 ft | 478 kts | 349° |
| 2026-04-23 19:39 | 38.26821 | 20.77593 | 36001 ft | 478 kts | 349° |
| 2026-04-23 19:39 | 38.33428 | 20.76507 | 36003 ft | 478 kts | 349° |
| 2026-04-23 19:40 | 38.40031 | 20.75420 | 36010 ft | 478 kts | 350° |
| 2026-04-23 19:40 | 38.45514 | 20.74517 | 36001 ft | 478 kts | 350° |
| 2026-04-23 19:41 | 38.52107 | 20.73428 | 36003 ft | 478 kts | 350° |
| 2026-04-23 19:41 | 38.58698 | 20.72338 | 36002 ft | 477 kts | 350° |
| 2026-04-23 19:42 | 38.65283 | 20.71248 | 36006 ft | 477 kts | 351° |
| 2026-04-23 19:42 | 38.71867 | 20.70153 | 35997 ft | 477 kts | 351° |
| 2026-04-23 19:43 | 38.78447 | 20.69057 | 35988 ft | 477 kts | 351° |
| 2026-04-23 19:43 | 38.85020 | 20.67962 | 35995 ft | 476 kts | 351° |
| 2026-04-23 19:44 | 38.91596 | 20.66864 | 35994 ft | 476 kts | 351° |
| 2026-04-23 19:44 | 38.98167 | 20.65765 | 35995 ft | 476 kts | 351° |
| 2026-04-23 19:45 | 39.04744 | 20.64662 | 36003 ft | 476 kts | 352° |
| 2026-04-23 19:45 | 39.11310 | 20.63559 | 35999 ft | 476 kts | 352° |
| 2026-04-23 19:46 | 39.17884 | 20.62453 | 35996 ft | 476 kts | 352° |
| 2026-04-23 19:46 | 39.24440 | 20.61348 | 36003 ft | 476 kts | 352° |
| 2026-04-23 19:47 | 39.31004 | 20.60239 | 35992 ft | 475 kts | 352° |
| 2026-04-23 19:47 | 39.37565 | 20.59129 | 35987 ft | 475 kts | 352° |
| 2026-04-23 19:48 | 39.44117 | 20.58008 | 35992 ft | 475 kts | 351° |
| 2026-04-23 19:48 | 39.50502 | 20.55871 | 36002 ft | 474 kts | 342° |
| 2026-04-23 19:49 | 39.56701 | 20.53130 | 35991 ft | 474 kts | 342° |
| 2026-04-23 19:49 | 39.62947 | 20.50377 | 36000 ft | 474 kts | 342° |
| 2026-04-23 19:50 | 39.69236 | 20.47641 | 36003 ft | 473 kts | 342° |
| 2026-04-23 19:50 | 39.75440 | 20.44955 | 35986 ft | 473 kts | 343° |
| 2026-04-23 19:51 | 39.81689 | 20.42249 | 35993 ft | 473 kts | 343° |
| 2026-04-23 19:51 | 39.87936 | 20.39537 | 35994 ft | 473 kts | 343° |
| 2026-04-23 19:52 | 39.94186 | 20.36817 | 35983 ft | 473 kts | 343° |
| 2026-04-23 19:52 | 40.00429 | 20.34094 | 35999 ft | 473 kts | 344° |
| 2026-04-23 19:53 | 40.06675 | 20.31365 | 35989 ft | 473 kts | 344° |
| 2026-04-23 19:53 | 40.12920 | 20.28631 | 35990 ft | 473 kts | 344° |
| 2026-04-23 19:54 | 40.19157 | 20.25894 | 35987 ft | 473 kts | 345° |
| 2026-04-23 19:54 | 40.25396 | 20.23152 | 35998 ft | 472 kts | 345° |
| 2026-04-23 19:55 | 40.31628 | 20.20408 | 36002 ft | 472 kts | 345° |
| 2026-04-23 19:55 | 40.37842 | 20.17666 | 36010 ft | 471 kts | 345° |
| 2026-04-23 19:56 | 40.44038 | 20.14926 | 36005 ft | 469 kts | 345° |
| 2026-04-23 19:56 | 40.50215 | 20.12190 | 36009 ft | 467 kts | 345° |
| 2026-04-23 19:57 | 40.56374 | 20.09456 | 36030 ft | 467 kts | 345° |
| 2026-04-23 19:57 | 40.62535 | 20.06718 | 36007 ft | 468 kts | 345° |
| 2026-04-23 19:58 | 40.68676 | 20.03982 | 36012 ft | 469 kts | 345° |
| 2026-04-23 19:58 | 40.74863 | 20.01220 | 36021 ft | 470 kts | 345° |
| 2026-04-23 19:59 | 40.81059 | 19.98449 | 36018 ft | 470 kts | 345° |
| 2026-04-23 19:59 | 40.87266 | 19.95666 | 36010 ft | 471 kts | 345° |
| 2026-04-23 20:00 | 40.93478 | 19.92877 | 36009 ft | 472 kts | 345° |
| 2026-04-23 20:00 | 40.99700 | 19.90077 | 36018 ft | 472 kts | 345° |
| 2026-04-23 20:01 | 41.05883 | 19.87289 | 36014 ft | 472 kts | 345° |
| 2026-04-23 20:01 | 41.12100 | 19.84480 | 36030 ft | 472 kts | 345° |
| 2026-04-23 20:02 | 41.18327 | 19.81662 | 36037 ft | 472 kts | 345° |
| 2026-04-23 20:02 | 41.24542 | 19.78843 | 36019 ft | 472 kts | 345° |
| 2026-04-23 20:03 | 41.30756 | 19.76018 | 36031 ft | 471 kts | 345° |
| 2026-04-23 20:03 | 41.36947 | 19.73199 | 36044 ft | 470 kts | 345° |
| 2026-04-23 20:04 | 41.43118 | 19.70383 | 36045 ft | 469 kts | 345° |
| 2026-04-23 20:04 | 41.49285 | 19.67563 | 36022 ft | 468 kts | 345° |
| 2026-04-23 20:05 | 41.55433 | 19.64746 | 36019 ft | 467 kts | 345° |
| 2026-04-23 20:05 | 41.61577 | 19.61925 | 36021 ft | 466 kts | 345° |
| 2026-04-23 20:06 | 41.67709 | 19.59105 | 36022 ft | 466 kts | 345° |
| 2026-04-23 20:06 | 41.73842 | 19.56278 | 36006 ft | 466 kts | 345° |
| 2026-04-23 20:07 | 41.79965 | 19.53450 | 36013 ft | 465 kts | 345° |
| 2026-04-23 20:07 | 41.86075 | 19.50622 | 36018 ft | 465 kts | 345° |
| 2026-04-23 20:08 | 41.92154 | 19.47803 | 36016 ft | 465 kts | 345° |
| 2026-04-23 20:08 | 41.98267 | 19.44962 | 36009 ft | 464 kts | 345° |
| 2026-04-23 20:09 | 42.04369 | 19.42120 | 36005 ft | 464 kts | 345° |
| 2026-04-23 20:09 | 42.10464 | 19.39276 | 36021 ft | 464 kts | 345° |
| 2026-04-23 20:10 | 42.15533 | 19.36906 | 36025 ft | 464 kts | 345° |
| 2026-04-23 20:10 | 42.22610 | 19.33438 | 36044 ft | 465 kts | 340° |
| 2026-04-23 20:11 | 42.28326 | 19.29276 | 36051 ft | 468 kts | 334° |
| 2026-04-23 20:11 | 42.33919 | 19.24782 | 36050 ft | 468 kts | 334° |
| 2026-04-23 20:12 | 42.39514 | 19.20297 | 36033 ft | 467 kts | 333° |
| 2026-04-23 20:12 | 42.45107 | 19.15839 | 36047 ft | 466 kts | 334° |
| 2026-04-23 20:13 | 42.50664 | 19.11416 | 36038 ft | 466 kts | 334° |
| 2026-04-23 20:13 | 42.56253 | 19.06962 | 36054 ft | 466 kts | 334° |
| 2026-04-23 20:14 | 42.61840 | 19.02500 | 36056 ft | 466 kts | 334° |
| 2026-04-23 20:14 | 42.67425 | 18.98027 | 36075 ft | 466 kts | 333° |
| 2026-04-23 20:15 | 42.73004 | 18.93547 | 36079 ft | 466 kts | 333° |
| 2026-04-23 20:15 | 42.78575 | 18.89066 | 36077 ft | 465 kts | 333° |
| 2026-04-23 20:16 | 42.84117 | 18.84597 | 36091 ft | 465 kts | 333° |
| 2026-04-23 20:16 | 42.89680 | 18.80098 | 36088 ft | 465 kts | 333° |
| 2026-04-23 20:17 | 42.95235 | 18.75604 | 36087 ft | 464 kts | 333° |
| 2026-04-23 20:17 | 43.00788 | 18.71104 | 36089 ft | 465 kts | 333° |
| 2026-04-23 20:18 | 43.06350 | 18.66585 | 36092 ft | 465 kts | 333° |
| 2026-04-23 20:18 | 43.11907 | 18.62058 | 36097 ft | 464 kts | 333° |
| 2026-04-23 20:19 | 43.17456 | 18.57528 | 36108 ft | 465 kts | 333° |
| 2026-04-23 20:19 | 43.23021 | 18.52976 | 36103 ft | 466 kts | 332° |
| 2026-04-23 20:20 | 43.28547 | 18.48446 | 36099 ft | 466 kts | 332° |
| 2026-04-23 20:20 | 43.34113 | 18.43872 | 36098 ft | 466 kts | 332° |
| 2026-04-23 20:21 | 43.39675 | 18.39291 | 36101 ft | 465 kts | 332° |
| 2026-04-23 20:21 | 43.45224 | 18.34713 | 36115 ft | 466 kts | 332° |
| 2026-04-23 20:22 | 43.50792 | 18.30110 | 36120 ft | 467 kts | 332° |
| 2026-04-23 20:22 | 43.56363 | 18.25493 | 36106 ft | 467 kts | 332° |
| 2026-04-23 20:23 | 43.61938 | 18.20861 | 36122 ft | 467 kts | 332° |
| 2026-04-23 20:23 | 43.67477 | 18.16252 | 36116 ft | 467 kts | 332° |
| 2026-04-23 20:24 | 43.73037 | 18.11612 | 36126 ft | 466 kts | 332° |
| 2026-04-23 20:24 | 43.78587 | 18.06972 | 36129 ft | 466 kts | 332° |
| 2026-04-23 20:25 | 43.84127 | 18.02330 | 36119 ft | 465 kts | 332° |
| 2026-04-23 20:25 | 43.89665 | 17.97679 | 36117 ft | 465 kts | 332° |
| 2026-04-23 20:26 | 43.95197 | 17.93024 | 36110 ft | 465 kts | 332° |
| 2026-04-23 20:26 | 44.00720 | 17.88367 | 36112 ft | 464 kts | 332° |
| 2026-04-23 20:27 | 44.06244 | 17.83699 | 36121 ft | 465 kts | 332° |
| 2026-04-23 20:27 | 44.11777 | 17.79011 | 36120 ft | 465 kts | 332° |
| 2026-04-23 20:28 | 44.17315 | 17.74308 | 36130 ft | 466 kts | 332° |
| 2026-04-23 20:28 | 44.21913 | 17.70396 | 36116 ft | 466 kts | 332° |
| 2026-04-23 20:29 | 44.27451 | 17.65674 | 36146 ft | 466 kts | 331° |
| 2026-04-23 20:29 | 44.32989 | 17.60943 | 36120 ft | 467 kts | 331° |
| 2026-04-23 20:30 | 44.38537 | 17.56191 | 36125 ft | 468 kts | 331° |
| 2026-04-23 20:30 | 44.46859 | 17.49045 | 36127 ft | 468 kts | 331° |
| 2026-04-23 20:31 | 44.52415 | 17.44261 | 36122 ft | 469 kts | 331° |
| 2026-04-23 20:31 | 44.57971 | 17.39465 | 36135 ft | 469 kts | 331° |
| 2026-04-23 20:32 | 44.63533 | 17.34652 | 36118 ft | 470 kts | 331° |
| 2026-04-23 20:32 | 44.69047 | 17.29871 | 36109 ft | 468 kts | 331° |
| 2026-04-23 20:33 | 44.74492 | 17.25136 | 36073 ft | 458 kts | 331° |
| 2026-04-23 20:33 | 44.77044 | 17.22905 | 36060 ft | 438 kts | 331° |
| 2026-04-23 20:33 | 44.79614 | 17.20670 | 36129 ft | 445 kts | 332° |
| 2026-04-23 20:34 | 44.84961 | 17.16041 | 36118 ft | 462 kts | 331° |
| 2026-04-23 20:34 | 44.90472 | 17.11196 | 36111 ft | 468 kts | 331° |
| 2026-04-23 20:35 | 44.95975 | 17.06352 | 36099 ft | 464 kts | 331° |
| 2026-04-23 20:35 | 45.01557 | 17.01851 | 36095 ft | 461 kts | 335° |
| 2026-04-23 20:36 | 45.07176 | 16.97467 | 36110 ft | 462 kts | 334° |
| 2026-04-23 20:36 | 45.12790 | 16.92979 | 36106 ft | 464 kts | 334° |
| 2026-04-23 20:37 | 45.18414 | 16.88469 | 36105 ft | 465 kts | 334° |
| 2026-04-23 20:37 | 45.24014 | 16.83980 | 36104 ft | 466 kts | 334° |
| 2026-04-23 20:38 | 45.29658 | 16.79451 | 36094 ft | 467 kts | 334° |
| 2026-04-23 20:38 | 45.35318 | 16.74900 | 36101 ft | 467 kts | 334° |
| 2026-04-23 20:39 | 45.40986 | 16.70331 | 36102 ft | 468 kts | 334° |
| 2026-04-23 20:39 | 45.46652 | 16.65754 | 36101 ft | 468 kts | 334° |
| 2026-04-23 20:40 | 45.52314 | 16.61168 | 36097 ft | 468 kts | 334° |
| 2026-04-23 20:40 | 45.57972 | 16.56575 | 36093 ft | 468 kts | 334° |
| 2026-04-23 20:41 | 45.63632 | 16.51971 | 36102 ft | 468 kts | 334° |
| 2026-04-23 20:41 | 45.69289 | 16.47358 | 36106 ft | 468 kts | 334° |
| 2026-04-23 20:42 | 45.74950 | 16.42730 | 36104 ft | 468 kts | 334° |
| 2026-04-23 20:42 | 45.80600 | 16.38099 | 36100 ft | 468 kts | 334° |
| 2026-04-23 20:43 | 45.86253 | 16.33456 | 36088 ft | 468 kts | 335° |
| 2026-04-23 20:43 | 45.91905 | 16.28832 | 36102 ft | 467 kts | 335° |
| 2026-04-23 20:44 | 45.97597 | 16.24319 | 36108 ft | 467 kts | 336° |
| 2026-04-23 20:44 | 46.03292 | 16.19813 | 36095 ft | 468 kts | 336° |
| 2026-04-23 20:45 | 46.08981 | 16.15282 | 36119 ft | 467 kts | 336° |
| 2026-04-23 20:45 | 46.14666 | 16.10732 | 36094 ft | 467 kts | 336° |
| 2026-04-23 20:46 | 46.20311 | 16.06205 | 36112 ft | 467 kts | 336° |
| 2026-04-23 20:46 | 46.26003 | 16.01629 | 36091 ft | 468 kts | 336° |
| 2026-04-23 20:47 | 46.31694 | 15.97044 | 36108 ft | 469 kts | 336° |
| 2026-04-23 20:47 | 46.37393 | 15.92449 | 36110 ft | 469 kts | 336° |
| 2026-04-23 20:48 | 46.43093 | 15.87842 | 36126 ft | 469 kts | 336° |
| 2026-04-23 20:48 | 46.48797 | 15.83220 | 36131 ft | 469 kts | 336° |
| 2026-04-23 20:49 | 46.54498 | 15.78589 | 36128 ft | 469 kts | 336° |
| 2026-04-23 20:49 | 46.60188 | 15.73956 | 36129 ft | 469 kts | 336° |
| 2026-04-23 20:50 | 46.65873 | 15.69315 | 36122 ft | 468 kts | 336° |
| 2026-04-23 20:50 | 46.71545 | 15.64625 | 36117 ft | 470 kts | 334° |
| 2026-04-23 20:51 | 46.77043 | 15.59461 | 36107 ft | 470 kts | 332° |
| 2026-04-23 20:51 | 46.82488 | 15.54186 | 36121 ft | 469 kts | 332° |
| 2026-04-23 20:52 | 46.87935 | 15.48924 | 36125 ft | 469 kts | 332° |
| 2026-04-23 20:52 | 46.93384 | 15.43680 | 36131 ft | 469 kts | 332° |
| 2026-04-23 20:53 | 46.98837 | 15.38430 | 36145 ft | 469 kts | 333° |
| 2026-04-23 20:53 | 47.04238 | 15.33216 | 36111 ft | 467 kts | 333° |
| 2026-04-23 20:54 | 47.09658 | 15.27970 | 36127 ft | 466 kts | 333° |
| 2026-04-23 20:54 | 47.15067 | 15.22723 | 36119 ft | 466 kts | 333° |
| 2026-04-23 20:55 | 47.20474 | 15.17464 | 36131 ft | 466 kts | 333° |
| 2026-04-23 20:55 | 47.25885 | 15.12186 | 36132 ft | 466 kts | 333° |
| 2026-04-23 20:56 | 47.31287 | 15.06905 | 36108 ft | 466 kts | 332° |
| 2026-04-23 20:56 | 47.36680 | 15.01618 | 36127 ft | 465 kts | 332° |
| 2026-04-23 20:57 | 47.42062 | 14.96329 | 36155 ft | 464 kts | 332° |
| 2026-04-23 20:57 | 47.47440 | 14.91034 | 36137 ft | 464 kts | 333° |
| 2026-04-23 20:58 | 47.52783 | 14.85662 | 36147 ft | 465 kts | 331° |
| 2026-04-23 20:58 | 47.58040 | 14.80083 | 36143 ft | 465 kts | 330° |
| 2026-04-23 20:59 | 47.63282 | 14.74475 | 36164 ft | 465 kts | 330° |
| 2026-04-23 20:59 | 47.68549 | 14.68887 | 36184 ft | 467 kts | 330° |
| 2026-04-23 21:00 | 47.73806 | 14.63302 | 36171 ft | 468 kts | 330° |
| 2026-04-23 21:00 | 47.79095 | 14.57663 | 36187 ft | 468 kts | 330° |
| 2026-04-23 21:01 | 47.84386 | 14.52010 | 36177 ft | 467 kts | 330° |
| 2026-04-23 21:01 | 47.89657 | 14.46360 | 36173 ft | 467 kts | 330° |
| 2026-04-23 21:02 | 47.94935 | 14.40694 | 36179 ft | 468 kts | 330° |
| 2026-04-23 21:02 | 48.00215 | 14.35008 | 36193 ft | 468 kts | 330° |
| 2026-04-23 21:03 | 48.05503 | 14.29298 | 36195 ft | 469 kts | 330° |
| 2026-04-23 21:03 | 48.10787 | 14.23578 | 36223 ft | 469 kts | 330° |
| 2026-04-23 21:04 | 48.16074 | 14.17842 | 36209 ft | 469 kts | 330° |
| 2026-04-23 21:04 | 48.21476 | 14.12421 | 36213 ft | 463 kts | 339° |
| 2026-04-23 21:05 | 48.27430 | 14.09057 | 36223 ft | 453 kts | 352° |
| 2026-04-23 21:05 | 48.33597 | 14.07416 | 36212 ft | 450 kts | 355° |
| 2026-04-23 21:06 | 48.39745 | 14.05914 | 36198 ft | 450 kts | 355° |
| 2026-04-23 21:06 | 48.45916 | 14.04337 | 36207 ft | 450 kts | 355° |
| 2026-04-23 21:07 | 48.52085 | 14.02722 | 36207 ft | 449 kts | 355° |
| 2026-04-23 21:07 | 48.58245 | 14.01104 | 36206 ft | 448 kts | 355° |
| 2026-04-23 21:08 | 48.64387 | 13.99490 | 36198 ft | 448 kts | 355° |
| 2026-04-23 21:08 | 48.70548 | 13.98660 | 36210 ft | 443 kts | 4° |
| 2026-04-23 21:09 | 48.76663 | 13.99311 | 36212 ft | 440 kts | 9° |
| 2026-04-23 21:09 | 48.82759 | 14.00244 | 36206 ft | 441 kts | 9° |
| 2026-04-23 21:10 | 48.88866 | 14.01160 | 36210 ft | 441 kts | 9° |
| 2026-04-23 21:10 | 48.94972 | 14.02053 | 36207 ft | 440 kts | 8° |
| 2026-04-23 21:11 | 49.01074 | 14.02937 | 36208 ft | 440 kts | 8° |
| 2026-04-23 21:11 | 49.07156 | 14.03818 | 36208 ft | 439 kts | 8° |
| 2026-04-23 21:12 | 49.13231 | 14.04702 | 36196 ft | 438 kts | 8° |
| 2026-04-23 21:12 | 49.19194 | 14.05569 | 35749 ft | 426 kts | 8° |
| 2026-04-23 21:13 | 49.22143 | 14.06000 | 34913 ft | 428 kts | 8° |
| 2026-04-23 21:13 | 49.25128 | 14.06440 | 34056 ft | 433 kts | 8° |
| 2026-04-23 21:13 | 49.28141 | 14.06884 | 33163 ft | 437 kts | 8° |
| 2026-04-23 21:13 | 49.31189 | 14.07333 | 32285 ft | 442 kts | 8° |
| 2026-04-23 21:14 | 49.34259 | 14.07785 | 31453 ft | 445 kts | 8° |
| 2026-04-23 21:14 | 49.37343 | 14.08238 | 30618 ft | 444 kts | 7° |
| 2026-04-23 21:14 | 49.40415 | 14.08689 | 29733 ft | 442 kts | 7° |
| 2026-04-23 21:14 | 49.43463 | 14.09137 | 28798 ft | 440 kts | 7° |
| 2026-04-23 21:15 | 49.46359 | 14.09564 | 27936 ft | 438 kts | 7° |
| 2026-04-23 21:15 | 49.49389 | 14.10012 | 27058 ft | 436 kts | 7° |
| 2026-04-23 21:15 | 49.52401 | 14.10459 | 26216 ft | 434 kts | 7° |
| 2026-04-23 21:15 | 49.55401 | 14.10903 | 25397 ft | 432 kts | 7° |
| 2026-04-23 21:16 | 49.57425 | 14.11204 | 24851 ft | 431 kts | 7° |
| 2026-04-23 21:16 | 49.60405 | 14.11646 | 24065 ft | 429 kts | 6° |
| 2026-04-23 21:16 | 49.63372 | 14.12087 | 23201 ft | 427 kts | 6° |
| 2026-04-23 21:16 | 49.66254 | 14.12588 | 22280 ft | 413 kts | 9° |
| 2026-04-23 21:17 | 49.68994 | 14.13509 | 21397 ft | 394 kts | 15° |
| 2026-04-23 21:17 | 49.71579 | 14.14673 | 20549 ft | 384 kts | 14° |
| 2026-04-23 21:17 | 49.74215 | 14.15494 | 19747 ft | 387 kts | 9° |
| 2026-04-23 21:17 | 49.76867 | 14.16175 | 18961 ft | 381 kts | 10° |
| 2026-04-23 21:18 | 49.79431 | 14.16904 | 18140 ft | 368 kts | 11° |
| 2026-04-23 21:18 | 49.81871 | 14.17654 | 17286 ft | 358 kts | 11° |
| 2026-04-23 21:18 | 49.84183 | 14.18708 | 16528 ft | 352 kts | 25° |
| 2026-04-23 21:18 | 49.86200 | 14.20891 | 15921 ft | 355 kts | 40° |
| 2026-04-23 21:19 | 49.87835 | 14.23772 | 15312 ft | 357 kts | 54° |
| 2026-04-23 21:19 | 49.88881 | 14.27137 | 14724 ft | 347 kts | 66° |
| 2026-04-23 21:19 | 49.89783 | 14.30423 | 14130 ft | 330 kts | 57° |
| 2026-04-23 21:19 | 49.91015 | 14.33337 | 13517 ft | 316 kts | 49° |
| 2026-04-23 21:20 | 49.92164 | 14.36067 | 13244 ft | 304 kts | 66° |
| 2026-04-23 21:20 | 49.92344 | 14.39349 | 13202 ft | 313 kts | 98° |
| 2026-04-23 21:20 | 49.91473 | 14.42437 | 13197 ft | 314 kts | 118° |
| 2026-04-23 21:20 | 49.90325 | 14.45265 | 13171 ft | 314 kts | 118° |
| 2026-04-23 21:21 | 49.88980 | 14.47970 | 13188 ft | 322 kts | 131° |
| 2026-04-23 21:21 | 49.87334 | 14.50349 | 12829 ft | 325 kts | 137° |
| 2026-04-23 21:21 | 49.85693 | 14.52658 | 12258 ft | 321 kts | 125° |
| 2026-04-23 21:21 | 49.84620 | 14.55539 | 11804 ft | 311 kts | 112° |
| 2026-04-23 21:22 | 49.83552 | 14.58473 | 11356 ft | 315 kts | 121° |
| 2026-04-23 21:22 | 49.82277 | 14.61254 | 10895 ft | 317 kts | 122° |
| 2026-04-23 21:22 | 49.81023 | 14.64049 | 10434 ft | 310 kts | 122° |
| 2026-04-23 21:22 | 49.79790 | 14.66690 | 9944 ft | 296 kts | 124° |
| 2026-04-23 21:23 | 49.78580 | 14.69194 | 9425 ft | 287 kts | 124° |
| 2026-04-23 21:23 | 49.77365 | 14.71676 | 8953 ft | 292 kts | 124° |
| 2026-04-23 21:23 | 49.76125 | 14.74194 | 8468 ft | 297 kts | 124° |
| 2026-04-23 21:23 | 49.75144 | 14.76907 | 8163 ft | 280 kts | 100° |
| 2026-04-23 21:24 | 49.75061 | 14.79736 | 8057 ft | 259 kts | 72° |
| 2026-04-23 21:24 | 49.75735 | 14.82182 | 7872 ft | 242 kts | 48° |
| 2026-04-23 21:24 | 49.76921 | 14.83945 | 7735 ft | 235 kts | 28° |
| 2026-04-23 21:24 | 49.78415 | 14.84813 | 7577 ft | 229 kts | 4° |
| 2026-04-23 21:25 | 49.79982 | 14.84599 | 7455 ft | 227 kts | 342° |
| 2026-04-23 21:25 | 49.81410 | 14.83685 | 7314 ft | 223 kts | 335° |
| 2026-04-23 21:25 | 49.82667 | 14.82370 | 7203 ft | 219 kts | 313° |
| 2026-04-23 21:25 | 49.83546 | 14.80486 | 7205 ft | 221 kts | 309° |
| 2026-04-23 21:26 | 49.84486 | 14.78553 | 7191 ft | 226 kts | 311° |
| 2026-04-23 21:26 | 49.85382 | 14.76741 | 7179 ft | 225 kts | 311° |
| 2026-04-23 21:26 | 49.86298 | 14.74865 | 7176 ft | 223 kts | 310° |
| 2026-04-23 21:26 | 49.87216 | 14.72980 | 7180 ft | 221 kts | 311° |
| 2026-04-23 21:27 | 49.88147 | 14.71086 | 7173 ft | 220 kts | 310° |
| 2026-04-23 21:27 | 49.89070 | 14.69205 | 7172 ft | 219 kts | 310° |
| 2026-04-23 21:27 | 49.89989 | 14.67325 | 7163 ft | 218 kts | 311° |
| 2026-04-23 21:27 | 49.90922 | 14.65418 | 7145 ft | 227 kts | 310° |
| 2026-04-23 21:28 | 49.91899 | 14.63423 | 6833 ft | 233 kts | 310° |
| 2026-04-23 21:28 | 49.92859 | 14.61453 | 6558 ft | 233 kts | 310° |
| 2026-04-23 21:28 | 49.93832 | 14.59456 | 6242 ft | 231 kts | 310° |
| 2026-04-23 21:28 | 49.94753 | 14.57568 | 5943 ft | 230 kts | 310° |
| 2026-04-23 21:29 | 49.95720 | 14.55590 | 5626 ft | 229 kts | 310° |
| 2026-04-23 21:29 | 49.96677 | 14.53621 | 5334 ft | 228 kts | 310° |
| 2026-04-23 21:29 | 49.97607 | 14.51708 | 5066 ft | 225 kts | 310° |
| 2026-04-23 21:29 | 49.98547 | 14.49776 | 4740 ft | 224 kts | 310° |
| 2026-04-23 21:30 | 49.99462 | 14.47899 | 4414 ft | 219 kts | 310° |
| 2026-04-23 21:30 | 50.00332 | 14.46108 | 4122 ft | 205 kts | 310° |
| 2026-04-23 21:30 | 50.01162 | 14.44396 | 3861 ft | 191 kts | 311° |
| 2026-04-23 21:30 | 50.01934 | 14.42808 | 3608 ft | 177 kts | 311° |
| 2026-04-23 21:31 | 50.02653 | 14.41328 | 3409 ft | 165 kts | 311° |
| 2026-04-23 21:31 | 50.03303 | 14.39992 | 3190 ft | 150 kts | 311° |
| 2026-04-23 21:31 | 50.03895 | 14.38769 | 2975 ft | 132 kts | 311° |
| 2026-04-23 21:31 | 50.04435 | 14.37663 | 2814 ft | 128 kts | 311° |
| 2026-04-23 21:32 | 50.04947 | 14.36612 | 2666 ft | 129 kts | 311° |
| 2026-04-23 21:32 | 50.05457 | 14.35565 | 2494 ft | 129 kts | 310° |
| 2026-04-23 21:32 | 50.05994 | 14.34454 | 2307 ft | 128 kts | 310° |
| 2026-04-23 21:32 | 50.06528 | 14.33349 | 2120 ft | 132 kts | 310° |
| 2026-04-23 21:33 | 50.07092 | 14.32220 | 1869 ft | 130 kts | 307° |
| 2026-04-23 21:33 | 50.07628 | 14.31100 | 1719 ft | 134 kts | 308° |
| 2026-04-23 21:33 | 50.08186 | 14.29928 | 1537 ft | 134 kts | 307° |
| 2026-04-23 21:33 | 50.08749 | 14.28779 | 1375 ft | 137 kts | 306° |
| 2026-04-23 21:34 | 50.09329 | 14.27577 | 1226 ft | 135 kts | 307° |
| 2026-04-23 21:34 | 50.09824 | 14.26555 | 1211 ft | 92 kts | 307° |
| 2026-04-23 21:34 | 50.10041 | 14.26109 | 1196 ft | 42 kts | 308° |
| 2026-04-23 21:34 | 50.10215 | 14.25762 | 1192 ft | 40 kts | 310° |
| 2026-04-23 21:35 | 50.10368 | 14.25444 | 1177 ft | 18 kts | 306° |
| 2026-04-23 21:35 | 50.10414 | 14.25378 | 1174 ft | 4 kts | 10° |